Observation data for Coyanosa on 05/27/2019      Previous  Date  Next       Current Mesonet Observations  Soil Data  Daily Summary Page  Observations in Plain Language
KCO1 270500Z 15015KT 25/16 A2983 RMK A01 T02500161  RH  058%=      5-min Rain = 0
KCO1 270501Z 15019G25KT 25/16 A2983 RMK A01 T02500161  RH  058%=      5-min Rain = 0
KCO1 270502Z 15018KT 25/16 A2982 RMK A01 T02500160  RH  058%=      5-min Rain = 0
KCO1 270503Z 15016KT 25/16 A2983 RMK A01 T02500160  RH  057%=      5-min Rain = 0
KCO1 270504Z 15018KT 25/16 A2982 RMK A01 T02500160  RH  057%=      5-min Rain = 0
KCO1 270505Z 15018KT 25/16 A2982 RMK A01 T02500160  RH  057%=      5-min Rain = 0
KCO1 270506Z 15017KT 25/16 A2982 RMK A01 T02500160  RH  057%=      5-min Rain = 0
KCO1 270507Z 15019KT 25/16 A2983 RMK A01 T02500160  RH  057%=      5-min Rain = 0
KCO1 270508Z 15019G24KT 25/16 A2982 RMK A01 T02500160  RH  057%=      5-min Rain = 0
KCO1 270509Z 16018G23KT 25/16 A2982 RMK A01 T02510160  RH  057%=      5-min Rain = 0
KCO1 270510Z 15018G24KT 25/16 A2982 RMK A01 T02510160  RH  057%=      5-min Rain = 0
KCO1 270511Z 16017KT 25/16 A2982 RMK A01 T02510159  RH  057%=      5-min Rain = 0
KCO1 270512Z 16020KT 25/16 A2982 RMK A01 T02510160  RH  057%=      5-min Rain = 0
KCO1 270513Z 16018KT 25/16 A2982 RMK A01 T02510160  RH  057%=      5-min Rain = 0
KCO1 270514Z 16017KT 25/16 A2982 RMK A01 T02510160  RH  057%=      5-min Rain = 0
KCO1 270515Z 15018G23KT 25/16 A2982 RMK A01 T02520160  RH  057%=      5-min Rain = 0
KCO1 270516Z 16016KT 25/16 A2982 RMK A01 T02510160  RH  057%=      5-min Rain = 0
KCO1 270517Z 16017KT 25/16 A2982 RMK A01 T02510160  RH  057%=      5-min Rain = 0
KCO1 270518Z 16018KT 25/16 A2982 RMK A01 T02510160  RH  057%=      5-min Rain = 0
KCO1 270519Z 16017KT 25/16 A2983 RMK A01 T02510160  RH  057%=      5-min Rain = 0
KCO1 270520Z 16016G22KT 25/16 A2982 RMK A01 T02510160  RH  057%=      5-min Rain = 0
KCO1 270521Z 16017KT 25/16 A2983 RMK A01 T02510159  RH  057%=      5-min Rain = 0
KCO1 270522Z 16016KT 25/16 A2983 RMK A01 T02510159  RH  057%=      5-min Rain = 0
KCO1 270523Z 16016KT 25/16 A2983 RMK A01 T02510160  RH  057%=      5-min Rain = 0
KCO1 270524Z 16014KT 25/16 A2983 RMK A01 T02500159  RH  057%=      5-min Rain = 0
KCO1 270525Z 16015KT 25/16 A2983 RMK A01 T02500159  RH  057%=      5-min Rain = 0
KCO1 270526Z 16017G23KT 25/16 A2983 RMK A01 T02490159  RH  057%=      5-min Rain = 0
KCO1 270527Z 17018KT 25/16 A2982 RMK A01 T02490159  RH  057%=      5-min Rain = 0
KCO1 270528Z 16019G24KT 25/16 A2983 RMK A01 T02500159  RH  057%=      5-min Rain = 0
KCO1 270529Z 16017KT 25/16 A2982 RMK A01 T02500158  RH  057%=      5-min Rain = 0
KCO1 270530Z 16016KT 25/16 A2983 RMK A01 T02500158  RH  057%=      5-min Rain = 0
KCO1 270531Z 16017KT 25/16 A2983 RMK A01 T02500159  RH  057%=      5-min Rain = 0
KCO1 270532Z 16016KT 25/16 A2982 RMK A01 T02500159  RH  057%=      5-min Rain = 0
KCO1 270533Z 16016KT 25/16 A2982 RMK A01 T02500159  RH  057%=      5-min Rain = 0
KCO1 270534Z 16016KT 25/16 A2982 RMK A01 T02500159  RH  057%=      5-min Rain = 0
KCO1 270535Z 16019KT 25/16 A2982 RMK A01 T02500159  RH  057%=      5-min Rain = 0
KCO1 270536Z 16018KT 25/16 A2982 RMK A01 T02500159  RH  057%=      5-min Rain = 0
KCO1 270537Z 16018G24KT 25/16 A2982 RMK A01 T02510159  RH  057%=      5-min Rain = 0
KCO1 270538Z 16017KT 25/16 A2982 RMK A01 T02510159  RH  057%=      5-min Rain = 0
KCO1 270539Z 16019G24KT 25/16 A2982 RMK A01 T02510159  RH  057%=      5-min Rain = 0
KCO1 270540Z 17018G25KT 25/16 A2982 RMK A01 T02510159  RH  057%=      5-min Rain = 0
KCO1 270541Z 17015G22KT 25/16 A2982 RMK A01 T02500159  RH  057%=      5-min Rain = 0
KCO1 270542Z 16018KT 25/16 A2982 RMK A01 T02500159  RH  057%=      5-min Rain = 0
KCO1 270543Z 16016KT 25/16 A2982 RMK A01 T02500160  RH  057%=      5-min Rain = 0
KCO1 270544Z 16015KT 25/16 A2982 RMK A01 T02500160  RH  057%=      5-min Rain = 0
KCO1 270545Z 16017KT 25/16 A2982 RMK A01 T02500160  RH  058%=      5-min Rain = 0
KCO1 270546Z 16019KT 25/16 A2982 RMK A01 T02490160  RH  058%=      5-min Rain = 0
KCO1 270547Z 16018G24KT 25/16 A2982 RMK A01 T02490160  RH  058%=      5-min Rain = 0
KCO1 270548Z 16018KT 25/16 A2982 RMK A01 T02490160  RH  058%=      5-min Rain = 0
KCO1 270549Z 16017KT 25/16 A2982 RMK A01 T02490160  RH  058%=      5-min Rain = 0
KCO1 270550Z 16019G25KT 25/16 A2982 RMK A01 T02490160  RH  058%=      5-min Rain = 0
KCO1 270551Z 16016KT 25/16 A2982 RMK A01 T02490161  RH  058%=      5-min Rain = 0
KCO1 270552Z 16017KT 25/16 A2982 RMK A01 T02490161  RH  058%=      5-min Rain = 0
KCO1 270553Z 16020KT 25/16 A2982 RMK A01 T02490161  RH  058%=      5-min Rain = 0
KCO1 270554Z 16017KT 25/16 A2982 RMK A01 T02490161  RH  058%=      5-min Rain = 0
KCO1 270555Z 16017G22KT 25/16 A2982 RMK A01 T02490161  RH  058%=      5-min Rain = 0
KCO1 270556Z 16017KT 25/16 A2982 RMK A01 T02490161  RH  058%=      5-min Rain = 0
KCO1 270557Z 16015KT 25/16 A2982 RMK A01 T02480161  RH  058%=      5-min Rain = 0
KCO1 270558Z 16018G24KT 25/16 A2982 RMK A01 T02480161  RH  058%=      5-min Rain = 0
KCO1 270559Z 16016KT 25/16 A2982 RMK A01 T02480161  RH  058%=      5-min Rain = 0
KCO1 270600Z 16016G21KT 25/16 A2982 RMK A01 T02480161  RH  058%=      5-min Rain = 0
KCO1 270601Z 16016KT 25/16 A2982 RMK A01 T02480161  RH  058%=      5-min Rain = 0
KCO1 270602Z 16015G20KT 25/16 A2983 RMK A01 T02480161  RH  058%=      5-min Rain = 0
KCO1 270603Z 16017KT 25/16 A2983 RMK A01 T02480161  RH  058%=      5-min Rain = 0
KCO1 270604Z 17014KT 25/16 A2983 RMK A01 T02480161  RH  058%=      5-min Rain = 0
KCO1 270605Z 19014KT 25/16 A2984 RMK A01 T02480161  RH  058%=      5-min Rain = 0
KCO1 270606Z 21013KT 25/16 A2986 RMK A01 T02480161  RH  058%=      5-min Rain = 0
KCO1 270607Z 24013KT 25/16 A2987 RMK A01 T02480161  RH  058%=      5-min Rain = 0
KCO1 270608Z 27014KT 25/16 A2988 RMK A01 T02470160  RH  058%=      5-min Rain = 0
KCO1 270609Z 28012KT 25/16 A2988 RMK A01 T02460159  RH  058%=      5-min Rain = 0
KCO1 270610Z 28011KT 24/16 A2988 RMK A01 T02440157  RH  058%=      5-min Rain = 0
KCO1 270611Z 29013KT 24/16 A2988 RMK A01 T02430156  RH  058%=      5-min Rain = 0
KCO1 270612Z 29008KT 24/16 A2988 RMK A01 T02430155  RH  058%=      5-min Rain = 0
KCO1 270613Z 30011G16KT 24/16 A2988 RMK A01 T02430155  RH  058%=      5-min Rain = 0
KCO1 270614Z 28016G21KT 24/16 A2988 RMK A01 T02430155  RH  058%=      5-min Rain = 0
KCO1 270615Z 27012G21KT 25/16 A2988 RMK A01 T02470156  RH  057%=      5-min Rain = 0
KCO1 270616Z 24010G15KT 25/16 A2988 RMK A01 T02500156  RH  056%=      5-min Rain = 0
KCO1 270617Z 19012G17KT 25/16 A2987 RMK A01 T02510155  RH  055%=      5-min Rain = 0
KCO1 270618Z 20011KT 25/16 A2986 RMK A01 T02520155  RH  055%=      5-min Rain = 0
KCO1 270619Z 20013KT 25/16 A2986 RMK A01 T02520155  RH  055%=      5-min Rain = 0
KCO1 270620Z 20013KT 25/16 A2986 RMK A01 T02520155  RH  055%=      5-min Rain = 0
KCO1 270621Z 21012KT 25/16 A2986 RMK A01 T02520156  RH  055%=      5-min Rain = 0
KCO1 270622Z 20011KT 25/16 A2987 RMK A01 T02520155  RH  055%=      5-min Rain = 0
KCO1 270623Z 21009G14KT 25/16 A2988 RMK A01 T02520155  RH  055%=      5-min Rain = 0
KCO1 270624Z 25011KT 25/16 A2988 RMK A01 T02520155  RH  055%=      5-min Rain = 0
KCO1 270625Z 25011KT 25/16 A2989 RMK A01 T02520155  RH  055%=      5-min Rain = 0
KCO1 270626Z 25012KT 25/16 A2989 RMK A01 T02520155  RH  055%=      5-min Rain = 0
KCO1 270627Z 27010KT 25/16 A299 RMK A01 T02520155  RH  055%=      5-min Rain = 0
KCO1 270628Z 28011KT 25/16 A299 RMK A01 T02520155  RH  055%=      5-min Rain = 0
KCO1 270629Z 26010G16KT 25/16 A299 RMK A01 T02520155  RH  055%=      5-min Rain = 0
KCO1 270630Z 23011KT 25/16 A299 RMK A01 T02510155  RH  055%=      5-min Rain = 0
KCO1 270631Z 21010KT 25/15 A2989 RMK A01 T02520154  RH  055%=      5-min Rain = 0
KCO1 270632Z 18015KT 25/16 A2988 RMK A01 T02530155  RH  054%=      5-min Rain = 0
KCO1 270633Z 17016KT 25/15 A2987 RMK A01 T02530154  RH  054%=      5-min Rain = 0
KCO1 270634Z 15016KT 25/15 A2986 RMK A01 T02540154  RH  054%=      5-min Rain = 0
KCO1 270635Z 16017KT 25/15 A2986 RMK A01 T02530154  RH  054%=      5-min Rain = 0
KCO1 270636Z 17014KT 25/15 A2986 RMK A01 T02530154  RH  054%=      5-min Rain = 0
KCO1 270637Z 18013KT 25/16 A2987 RMK A01 T02530155  RH  055%=      5-min Rain = 0
KCO1 270638Z 18013KT 25/16 A2987 RMK A01 T02520156  RH  055%=      5-min Rain = 0
KCO1 270639Z 20013KT 25/16 A2988 RMK A01 T02510156  RH  055%=      5-min Rain = 0
KCO1 270640Z 20009KT 25/16 A2988 RMK A01 T02520156  RH  055%=      5-min Rain = 0
KCO1 270641Z 21008KT 25/16 A2988 RMK A01 T02510156  RH  055%=      5-min Rain = 0
KCO1 270642Z 22008KT 25/16 A2988 RMK A01 T02500157  RH  056%=      5-min Rain = 0
KCO1 270643Z 22008KT 25/16 A2988 RMK A01 T02500157  RH  056%=      5-min Rain = 0
KCO1 270644Z 23007KT 25/16 A2988 RMK A01 T02490157  RH  057%=      5-min Rain = 0
KCO1 270645Z 23006KT 25/16 A2988 RMK A01 T02480157  RH  057%=      5-min Rain = 0
KCO1 270646Z 22005KT 25/16 A2988 RMK A01 T02470157  RH  057%=      5-min Rain = 0
KCO1 270647Z 21005KT 25/16 A2988 RMK A01 T02470157  RH  057%=      5-min Rain = 0
KCO1 270648Z 18006KT 25/16 A2988 RMK A01 T02460158  RH  058%=      5-min Rain = 0
KCO1 270649Z 18008KT 25/16 A2988 RMK A01 T02450157  RH  058%=      5-min Rain = 0
KCO1 270650Z 18008KT 24/16 A2988 RMK A01 T02440158  RH  059%=      5-min Rain = 0
KCO1 270651Z 17007KT 24/16 A2987 RMK A01 T02440158  RH  059%=      5-min Rain = 0
KCO1 270652Z 17007KT 24/16 A2987 RMK A01 T02430158  RH  059%=      5-min Rain = 0
KCO1 270653Z 17007KT 24/16 A2987 RMK A01 T02420158  RH  059%=      5-min Rain = 0
KCO1 270654Z 17007KT 24/16 A2987 RMK A01 T02410158  RH  060%=      5-min Rain = 0
KCO1 270655Z 17007KT 24/16 A2987 RMK A01 T02410158  RH  060%=      5-min Rain = 0
KCO1 270656Z 17007KT 24/16 A2987 RMK A01 T02400158  RH  060%=      5-min Rain = 0
KCO1 270657Z 17007KT 24/16 A2987 RMK A01 T02400158  RH  060%=      5-min Rain = 0
KCO1 270658Z 17006KT 24/16 A2987 RMK A01 T02400158  RH  060%=      5-min Rain = 0
KCO1 270659Z 17006KT 24/16 A2987 RMK A01 T02400158  RH  060%=      5-min Rain = 0
KCO1 270700Z 17006KT 24/16 A2987 RMK A01 T02390158  RH  060%=      5-min Rain = 0
KCO1 270701Z 17007KT 24/16 A2987 RMK A01 T02390158  RH  061%=      5-min Rain = 0
KCO1 270702Z 16007KT 24/16 A2987 RMK A01 T02380159  RH  061%=      5-min Rain = 0
KCO1 270703Z 17007KT 24/16 A2987 RMK A01 T02370159  RH  061%=      5-min Rain = 0
KCO1 270704Z 17007KT 24/16 A2987 RMK A01 T02370159  RH  062%=      5-min Rain = 0
KCO1 270705Z 17007KT 24/16 A2987 RMK A01 T02370159  RH  062%=      5-min Rain = 0
KCO1 270706Z 16007KT 24/16 A2987 RMK A01 T02360159  RH  062%=      5-min Rain = 0
KCO1 270707Z 15006KT 24/16 A2987 RMK A01 T02360159  RH  062%=      5-min Rain = 0
KCO1 270708Z 15005KT 24/16 A2987 RMK A01 T02370159  RH  062%=      5-min Rain = 0
KCO1 270709Z 15006KT 24/16 A2987 RMK A01 T02370159  RH  062%=      5-min Rain = 0
KCO1 270710Z 15006KT 24/16 A2987 RMK A01 T02370159  RH  062%=      5-min Rain = 0
KCO1 270711Z 14006KT 24/16 A2986 RMK A01 T02360158  RH  062%=      5-min Rain = 0
KCO1 270712Z 14007KT 24/16 A2986 RMK A01 T02360159  RH  062%=      5-min Rain = 0
KCO1 270713Z 15007KT 24/16 A2986 RMK A01 T02350158  RH  062%=      5-min Rain = 0
KCO1 270714Z 14007KT 23/16 A2986 RMK A01 T02340158  RH  062%=      5-min Rain = 0
KCO1 270715Z 14007KT 23/16 A2986 RMK A01 T02330158  RH  063%=      5-min Rain = 0
KCO1 270716Z 14008KT 23/16 A2986 RMK A01 T02330158  RH  063%=      5-min Rain = 0
KCO1 270717Z 14008KT 23/16 A2986 RMK A01 T02320158  RH  063%=      5-min Rain = 0
KCO1 270718Z 14008KT 23/16 A2986 RMK A01 T02310158  RH  063%=      5-min Rain = 0
KCO1 270719Z 14009KT 23/16 A2986 RMK A01 T02300158  RH  064%=      5-min Rain = 0
KCO1 270720Z 13010KT 23/16 A2986 RMK A01 T02300158  RH  064%=      5-min Rain = 0
KCO1 270721Z 13010KT 23/16 A2985 RMK A01 T02300158  RH  064%=      5-min Rain = 0
KCO1 270722Z 13010KT 23/16 A2985 RMK A01 T02310158  RH  064%=      5-min Rain = 0
KCO1 270723Z 13009KT 23/16 A2985 RMK A01 T02300158  RH  064%=      5-min Rain = 0
KCO1 270724Z 14010KT 23/16 A2985 RMK A01 T02300158  RH  064%=      5-min Rain = 0
KCO1 270725Z 13009KT 23/16 A2985 RMK A01 T02290157  RH  064%=      5-min Rain = 0
KCO1 270726Z 14009KT 23/16 A2985 RMK A01 T02290157  RH  064%=      5-min Rain = 0
KCO1 270727Z 14009KT 23/16 A2985 RMK A01 T02290157  RH  064%=      5-min Rain = 0
KCO1 270728Z 13009KT 23/16 A2985 RMK A01 T02280157  RH  064%=      5-min Rain = 0
KCO1 270729Z 13009KT 23/16 A2985 RMK A01 T02280157  RH  064%=      5-min Rain = 0
KCO1 270730Z 13009KT 23/16 A2985 RMK A01 T02280158  RH  065%=      5-min Rain = 0
KCO1 270731Z 13008KT 23/16 A2985 RMK A01 T02270158  RH  065%=      5-min Rain = 0
KCO1 270732Z 13008KT 23/16 A2985 RMK A01 T02270158  RH  065%=      5-min Rain = 0
KCO1 270733Z 14008KT 23/16 A2985 RMK A01 T02270158  RH  065%=      5-min Rain = 0
KCO1 270734Z 13008KT 23/16 A2985 RMK A01 T02270158  RH  065%=      5-min Rain = 0
KCO1 270735Z 13010KT 23/16 A2985 RMK A01 T02270158  RH  065%=      5-min Rain = 0
KCO1 270736Z 13010KT 23/16 A2985 RMK A01 T02270159  RH  065%=      5-min Rain = 0
KCO1 270737Z 13009KT 23/16 A2985 RMK A01 T02270158  RH  065%=      5-min Rain = 0
KCO1 270738Z 13009KT 23/16 A2985 RMK A01 T02270158  RH  065%=      5-min Rain = 0
KCO1 270739Z 13009KT 23/16 A2985 RMK A01 T02270158  RH  065%=      5-min Rain = 0
KCO1 270740Z 13009KT 23/16 A2985 RMK A01 T02270158  RH  065%=      5-min Rain = 0
KCO1 270741Z 13010KT 23/16 A2985 RMK A01 T02270158  RH  065%=      5-min Rain = 0
KCO1 270742Z 13009KT 23/16 A2985 RMK A01 T02270158  RH  065%=      5-min Rain = 0
KCO1 270743Z 13009KT 23/16 A2985 RMK A01 T02280159  RH  065%=      5-min Rain = 0
KCO1 270744Z 13009KT 23/16 A2985 RMK A01 T02280159  RH  065%=      5-min Rain = 0
KCO1 270745Z 13010KT 23/16 A2985 RMK A01 T02280159  RH  065%=      5-min Rain = 0
KCO1 270746Z 13011KT 23/16 A2985 RMK A01 T02270159  RH  065%=      5-min Rain = 0
KCO1 270747Z 14012KT 23/16 A2985 RMK A01 T02280159  RH  065%=      5-min Rain = 0
KCO1 270748Z 13011KT 23/16 A2985 RMK A01 T02290160  RH  065%=      5-min Rain = 0
KCO1 270749Z 14010KT 23/16 A2985 RMK A01 T02300160  RH  065%=      5-min Rain = 0
KCO1 270750Z 13010KT 23/16 A2985 RMK A01 T02300160  RH  065%=      5-min Rain = 0
KCO1 270751Z 14010KT 23/16 A2985 RMK A01 T02310160  RH  064%=      5-min Rain = 0
KCO1 270752Z 14010KT 23/16 A2985 RMK A01 T02310160  RH  064%=      5-min Rain = 0
KCO1 270753Z 14011KT 23/16 A2985 RMK A01 T02310160  RH  064%=      5-min Rain = 0
KCO1 270754Z 14011KT 23/16 A2985 RMK A01 T02320160  RH  064%=      5-min Rain = 0
KCO1 270755Z 14012KT 23/16 A2985 RMK A01 T02330161  RH  064%=      5-min Rain = 0
KCO1 270756Z 14010KT 23/16 A2985 RMK A01 T02330161  RH  064%=      5-min Rain = 0
KCO1 270757Z 14011KT 23/16 A2985 RMK A01 T02330160  RH  064%=      5-min Rain = 0
KCO1 270758Z 14010KT 23/16 A2985 RMK A01 T02330161  RH  064%=      5-min Rain = 0
KCO1 270759Z 14011KT 23/16 A2985 RMK A01 T02330160  RH  064%=      5-min Rain = 0
KCO1 270800Z 14011KT 23/16 A2985 RMK A01 T02330161  RH  064%=      5-min Rain = 0
KCO1 270801Z 14011KT 23/16 A2985 RMK A01 T02330161  RH  064%=      5-min Rain = 0
KCO1 270802Z 14012KT 23/16 A2985 RMK A01 T02330161  RH  064%=      5-min Rain = 0
KCO1 270803Z 14012KT 23/16 A2984 RMK A01 T02330161  RH  064%=      5-min Rain = 0
KCO1 270804Z 14012KT 23/16 A2984 RMK A01 T02330161  RH  064%=      5-min Rain = 0
KCO1 270805Z 14012KT 23/16 A2984 RMK A01 T02320161  RH  064%=      5-min Rain = 0
KCO1 270806Z 14012KT 23/16 A2984 RMK A01 T02320160  RH  064%=      5-min Rain = 0
KCO1 270807Z 14012KT 23/16 A2984 RMK A01 T02320160  RH  064%=      5-min Rain = 0
KCO1 270808Z 15011KT 23/16 A2984 RMK A01 T02320160  RH  064%=      5-min Rain = 0
KCO1 270809Z 14011KT 23/16 A2984 RMK A01 T02320160  RH  064%=      5-min Rain = 0
KCO1 270810Z 14011KT 23/16 A2984 RMK A01 T02320160  RH  064%=      5-min Rain = 0
KCO1 270811Z 15011KT 23/16 A2984 RMK A01 T02320160  RH  064%=      5-min Rain = 0
KCO1 270812Z 14010KT 23/16 A2984 RMK A01 T02310160  RH  064%=      5-min Rain = 0
KCO1 270813Z 14012KT 23/16 A2984 RMK A01 T02310160  RH  064%=      5-min Rain = 0
KCO1 270814Z 14013KT 23/16 A2984 RMK A01 T02310160  RH  064%=      5-min Rain = 0
KCO1 270815Z 15012KT 23/16 A2984 RMK A01 T02320160  RH  064%=      5-min Rain = 0
KCO1 270816Z 14012KT 23/16 A2984 RMK A01 T02320160  RH  064%=      5-min Rain = 0
KCO1 270817Z 14012KT 23/16 A2984 RMK A01 T02320160  RH  064%=      5-min Rain = 0
KCO1 270818Z 14011KT 23/16 A2984 RMK A01 T02320160  RH  064%=      5-min Rain = 0
KCO1 270819Z 14011KT 23/16 A2984 RMK A01 T02320160  RH  064%=      5-min Rain = 0
KCO1 270820Z 15011KT 23/16 A2984 RMK A01 T02320160  RH  064%=      5-min Rain = 0
KCO1 270821Z 15012KT 23/16 A2984 RMK A01 T02320160  RH  064%=      5-min Rain = 0
KCO1 270822Z 14013KT 23/16 A2984 RMK A01 T02320159  RH  064%=      5-min Rain = 0
KCO1 270823Z 15012KT 23/16 A2984 RMK A01 T02320159  RH  064%=      5-min Rain = 0
KCO1 270824Z 15013KT 23/16 A2984 RMK A01 T02320159  RH  063%=      5-min Rain = 0
KCO1 270825Z 14012KT 23/16 A2984 RMK A01 T02320159  RH  063%=      5-min Rain = 0
KCO1 270826Z 15011KT 23/16 A2984 RMK A01 T02320159  RH  064%=      5-min Rain = 0
KCO1 270827Z 15010KT 23/16 A2984 RMK A01 T02320159  RH  063%=      5-min Rain = 0
KCO1 270828Z 15011KT 23/16 A2984 RMK A01 T02320159  RH  064%=      5-min Rain = 0
KCO1 270829Z 15009KT 23/16 A2984 RMK A01 T02320159  RH  064%=      5-min Rain = 0
KCO1 270830Z 14008KT 23/16 A2984 RMK A01 T02320159  RH  064%=      5-min Rain = 0
KCO1 270831Z 15009KT 23/16 A2984 RMK A01 T02310159  RH  064%=      5-min Rain = 0
KCO1 270832Z 14010KT 23/16 A2984 RMK A01 T02310159  RH  064%=      5-min Rain = 0
KCO1 270833Z 14009KT 23/16 A2984 RMK A01 T02300159  RH  064%=      5-min Rain = 0
KCO1 270834Z 14010KT 23/16 A2984 RMK A01 T02300159  RH  064%=      5-min Rain = 0
KCO1 270835Z 14009KT 23/16 A2984 RMK A01 T02300159  RH  064%=      5-min Rain = 0
KCO1 270836Z 14010KT 23/16 A2984 RMK A01 T02300159  RH  064%=      5-min Rain = 0
KCO1 270837Z 14010KT 23/16 A2984 RMK A01 T02290159  RH  065%=      5-min Rain = 0
KCO1 270838Z 14009KT 23/16 A2984 RMK A01 T02290159  RH  065%=      5-min Rain = 0
KCO1 270839Z 14009KT 23/16 A2984 RMK A01 T02290159  RH  065%=      5-min Rain = 0
KCO1 270840Z 14008KT 23/16 A2984 RMK A01 T02280159  RH  065%=      5-min Rain = 0
KCO1 270841Z 14008KT 23/16 A2984 RMK A01 T02270159  RH  065%=      5-min Rain = 0
KCO1 270842Z 14010KT 23/16 A2984 RMK A01 T02270158  RH  065%=      5-min Rain = 0
KCO1 270843Z 14010KT 23/16 A2984 RMK A01 T02270159  RH  065%=      5-min Rain = 0
KCO1 270844Z 14010KT 23/16 A2984 RMK A01 T02270159  RH  065%=      5-min Rain = 0
KCO1 270845Z 14009KT 23/16 A2984 RMK A01 T02270158  RH  065%=      5-min Rain = 0
KCO1 270846Z 14009KT 23/16 A2984 RMK A01 T02270158  RH  065%=      5-min Rain = 0
KCO1 270847Z 14009KT 23/16 A2984 RMK A01 T02270159  RH  065%=      5-min Rain = 0
KCO1 270848Z 14009KT 23/16 A2984 RMK A01 T02260158  RH  066%=      5-min Rain = 0
KCO1 270849Z 14008KT 23/16 A2984 RMK A01 T02250159  RH  066%=      5-min Rain = 0
KCO1 270850Z 14008KT 23/16 A2984 RMK A01 T02250159  RH  066%=      5-min Rain = 0
KCO1 270851Z 14007KT 22/16 A2984 RMK A01 T02240159  RH  066%=      5-min Rain = 0
KCO1 270852Z 14008KT 22/16 A2984 RMK A01 T02230159  RH  067%=      5-min Rain = 0
KCO1 270853Z 14008KT 22/16 A2984 RMK A01 T02230159  RH  067%=      5-min Rain = 0
KCO1 270854Z 14008KT 22/16 A2984 RMK A01 T02220159  RH  067%=      5-min Rain = 0
KCO1 270855Z 14008KT 22/16 A2984 RMK A01 T02220159  RH  068%=      5-min Rain = 0
KCO1 270856Z 14008KT 22/16 A2984 RMK A01 T02210159  RH  068%=      5-min Rain = 0
KCO1 270857Z 14009KT 22/16 A2984 RMK A01 T02210159  RH  068%=      5-min Rain = 0
KCO1 270858Z 14008KT 22/16 A2984 RMK A01 T02200159  RH  068%=      5-min Rain = 0
KCO1 270859Z 14007KT 22/16 A2984 RMK A01 T02200159  RH  068%=      5-min Rain = 0
KCO1 270900Z 14008KT 22/16 A2984 RMK A01 T02190159  RH  068%=      5-min Rain = 0
KCO1 270901Z 14008KT 22/16 A2984 RMK A01 T02190159  RH  069%=      5-min Rain = 0
KCO1 270902Z 14008KT 22/16 A2984 RMK A01 T02190159  RH  069%=      5-min Rain = 0
KCO1 270903Z 14007KT 22/16 A2984 RMK A01 T02180159  RH  069%=      5-min Rain = 0
KCO1 270904Z 14007KT 22/16 A2984 RMK A01 T02180159  RH  069%=      5-min Rain = 0
KCO1 270905Z 14008KT 22/16 A2984 RMK A01 T02170158  RH  069%=      5-min Rain = 0
KCO1 270906Z 15007KT 22/16 A2984 RMK A01 T02170159  RH  069%=      5-min Rain = 0
KCO1 270907Z 14007KT 22/16 A2984 RMK A01 T02170159  RH  069%=      5-min Rain = 0
KCO1 270908Z 14008KT 22/16 A2984 RMK A01 T02160159  RH  070%=      5-min Rain = 0
KCO1 270909Z 14008KT 22/16 A2984 RMK A01 T02160158  RH  070%=      5-min Rain = 0
KCO1 270910Z 14007KT 22/16 A2984 RMK A01 T02160158  RH  070%=      5-min Rain = 0
KCO1 270911Z 14006KT 22/16 A2984 RMK A01 T02160158  RH  070%=      5-min Rain = 0
KCO1 270912Z 14006KT 22/16 A2984 RMK A01 T02150158  RH  070%=      5-min Rain = 0
KCO1 270913Z 14007KT 21/16 A2984 RMK A01 T02140158  RH  070%=      5-min Rain = 0
KCO1 270914Z 14007KT 21/16 A2984 RMK A01 T02140158  RH  070%=      5-min Rain = 0
KCO1 270915Z 14007KT 21/16 A2984 RMK A01 T02130158  RH  071%=      5-min Rain = 0
KCO1 270916Z 14007KT 21/16 A2984 RMK A01 T02130158  RH  071%=      5-min Rain = 0
KCO1 270917Z 14007KT 21/16 A2984 RMK A01 T02120158  RH  071%=      5-min Rain = 0
KCO1 270918Z 14007KT 21/16 A2984 RMK A01 T02120158  RH  071%=      5-min Rain = 0
KCO1 270919Z 14006KT 21/16 A2984 RMK A01 T02120158  RH  071%=      5-min Rain = 0
KCO1 270920Z 14007KT 21/16 A2984 RMK A01 T02110158  RH  071%=      5-min Rain = 0
KCO1 270921Z 14006KT 21/16 A2984 RMK A01 T02110158  RH  072%=      5-min Rain = 0
KCO1 270922Z 14007KT 21/16 A2984 RMK A01 T02100157  RH  072%=      5-min Rain = 0
KCO1 270923Z 14006KT 21/16 A2984 RMK A01 T02090158  RH  072%=      5-min Rain = 0
KCO1 270924Z 14007KT 21/16 A2984 RMK A01 T02090157  RH  072%=      5-min Rain = 0
KCO1 270925Z 14007KT 21/16 A2984 RMK A01 T02090157  RH  072%=      5-min Rain = 0
KCO1 270926Z 14007KT 21/16 A2984 RMK A01 T02090157  RH  072%=      5-min Rain = 0
KCO1 270927Z 14007KT 21/16 A2984 RMK A01 T02090157  RH  072%=      5-min Rain = 0
KCO1 270928Z 13008KT 21/16 A2984 RMK A01 T02090157  RH  072%=      5-min Rain = 0
KCO1 270929Z 14008KT 21/16 A2984 RMK A01 T02080157  RH  072%=      5-min Rain = 0
KCO1 270930Z 14007KT 21/16 A2984 RMK A01 T02080157  RH  072%=      5-min Rain = 0
KCO1 270931Z 14008KT 21/16 A2984 RMK A01 T02090157  RH  072%=      5-min Rain = 0
KCO1 270932Z 14008KT 21/16 A2984 RMK A01 T02080157  RH  072%=      5-min Rain = 0
KCO1 270933Z 14009KT 21/16 A2984 RMK A01 T02080156  RH  072%=      5-min Rain = 0
KCO1 270934Z 14008KT 21/16 A2984 RMK A01 T02090156  RH  072%=      5-min Rain = 0
KCO1 270935Z 14008KT 21/16 A2984 RMK A01 T02100156  RH  072%=      5-min Rain = 0
KCO1 270936Z 14008KT 21/16 A2984 RMK A01 T02100156  RH  071%=      5-min Rain = 0
KCO1 270937Z 14008KT 21/16 A2984 RMK A01 T02100156  RH  071%=      5-min Rain = 0
KCO1 270938Z 14008KT 21/16 A2984 RMK A01 T02100156  RH  071%=      5-min Rain = 0
KCO1 270939Z 14008KT 21/16 A2984 RMK A01 T02100156  RH  071%=      5-min Rain = 0
KCO1 270940Z 14007KT 21/16 A2984 RMK A01 T02100156  RH  071%=      5-min Rain = 0
KCO1 270941Z 14008KT 21/16 A2984 RMK A01 T02100155  RH  071%=      5-min Rain = 0
KCO1 270942Z 14008KT 21/16 A2984 RMK A01 T02100156  RH  071%=      5-min Rain = 0
KCO1 270943Z 14008KT 21/16 A2984 RMK A01 T02100156  RH  071%=      5-min Rain = 0
KCO1 270944Z 14009KT 21/16 A2984 RMK A01 T02100155  RH  071%=      5-min Rain = 0
KCO1 270945Z 14009KT 21/16 A2984 RMK A01 T02110155  RH  070%=      5-min Rain = 0
KCO1 270946Z 14009KT 21/16 A2984 RMK A01 T02120155  RH  070%=      5-min Rain = 0
KCO1 270947Z 14008KT 21/16 A2984 RMK A01 T02140155  RH  069%=      5-min Rain = 0
KCO1 270948Z 14009KT 22/16 A2984 RMK A01 T02150156  RH  069%=      5-min Rain = 0
KCO1 270949Z 15009KT 22/16 A2984 RMK A01 T02160156  RH  069%=      5-min Rain = 0
KCO1 270950Z 14009KT 22/16 A2984 RMK A01 T02160156  RH  069%=      5-min Rain = 0
KCO1 270951Z 15010KT 22/16 A2984 RMK A01 T02170156  RH  068%=      5-min Rain = 0
KCO1 270952Z 15008KT 22/16 A2984 RMK A01 T02170156  RH  068%=      5-min Rain = 0
KCO1 270953Z 15007KT 22/16 A2984 RMK A01 T02170156  RH  068%=      5-min Rain = 0
KCO1 270954Z 15008KT 22/16 A2984 RMK A01 T02170156  RH  068%=      5-min Rain = 0
KCO1 270955Z 15008KT 22/16 A2984 RMK A01 T02180156  RH  068%=      5-min Rain = 0
KCO1 270956Z 15007KT 22/16 A2984 RMK A01 T02170156  RH  068%=      5-min Rain = 0
KCO1 270957Z 15008KT 22/16 A2984 RMK A01 T02170156  RH  068%=      5-min Rain = 0
KCO1 270958Z 15008KT 22/16 A2985 RMK A01 T02170156  RH  068%=      5-min Rain = 0
KCO1 270959Z 15007KT 22/16 A2985 RMK A01 T02180156  RH  068%=      5-min Rain = 0
KCO1 271000Z 15009KT 22/16 A2985 RMK A01 T02180156  RH  068%=      5-min Rain = 0
KCO1 271001Z 15010KT 22/16 A2985 RMK A01 T02190156  RH  068%=      5-min Rain = 0
KCO1 271002Z 14010KT 22/16 A2985 RMK A01 T02200157  RH  067%=      5-min Rain = 0
KCO1 271003Z 15009KT 22/16 A2985 RMK A01 T02220157  RH  067%=      5-min Rain = 0
KCO1 271004Z 15009KT 22/16 A2985 RMK A01 T02230157  RH  066%=      5-min Rain = 0
KCO1 271005Z 14009KT 22/16 A2985 RMK A01 T02240157  RH  066%=      5-min Rain = 0
KCO1 271006Z 14008KT 22/16 A2984 RMK A01 T02230157  RH  066%=      5-min Rain = 0
KCO1 271007Z 15010KT 22/16 A2984 RMK A01 T02240157  RH  066%=      5-min Rain = 0
KCO1 271008Z 14010KT 22/16 A2984 RMK A01 T02240157  RH  066%=      5-min Rain = 0
KCO1 271009Z 15011KT 23/16 A2984 RMK A01 T02260158  RH  065%=      5-min Rain = 0
KCO1 271010Z 15011KT 23/16 A2984 RMK A01 T02270158  RH  065%=      5-min Rain = 0
KCO1 271011Z 15010KT 23/16 A2984 RMK A01 T02280158  RH  065%=      5-min Rain = 0
KCO1 271012Z 15012KT 23/16 A2984 RMK A01 T02280158  RH  064%=      5-min Rain = 0
KCO1 271013Z 14012KT 23/16 A2984 RMK A01 T02290158  RH  064%=      5-min Rain = 0
KCO1 271014Z 15011KT 23/16 A2984 RMK A01 T02290158  RH  064%=      5-min Rain = 0
KCO1 271015Z 15010KT 23/16 A2984 RMK A01 T02290158  RH  064%=      5-min Rain = 0
KCO1 271016Z 15012KT 23/16 A2984 RMK A01 T02290158  RH  064%=      5-min Rain = 0
KCO1 271017Z 14010KT 23/16 A2984 RMK A01 T02280158  RH  065%=      5-min Rain = 0
KCO1 271018Z 15012KT 23/16 A2984 RMK A01 T02290159  RH  065%=      5-min Rain = 0
KCO1 271019Z 15013KT 23/16 A2984 RMK A01 T02280159  RH  065%=      5-min Rain = 0
KCO1 271020Z 15014KT 23/16 A2985 RMK A01 T02280159  RH  065%=      5-min Rain = 0
KCO1 271021Z 15012KT 23/16 A2985 RMK A01 T02280159  RH  065%=      5-min Rain = 0
KCO1 271022Z 15012KT 23/16 A2985 RMK A01 T02280159  RH  065%=      5-min Rain = 0
KCO1 271023Z 15011KT 23/16 A2985 RMK A01 T02280160  RH  065%=      5-min Rain = 0
KCO1 271024Z 15013KT 23/16 A2985 RMK A01 T02270160  RH  066%=      5-min Rain = 0
KCO1 271025Z 15011KT 23/16 A2985 RMK A01 T02270160  RH  066%=      5-min Rain = 0
KCO1 271026Z 15014KT 23/16 A2985 RMK A01 T02270160  RH  066%=      5-min Rain = 0
KCO1 271027Z 15013KT 23/16 A2985 RMK A01 T02270161  RH  066%=      5-min Rain = 0
KCO1 271028Z 14011KT 23/16 A2985 RMK A01 T02270161  RH  066%=      5-min Rain = 0
KCO1 271029Z 14013KT 23/16 A2985 RMK A01 T02260161  RH  067%=      5-min Rain = 0
KCO1 271030Z 15014KT 23/16 A2985 RMK A01 T02260162  RH  067%=      5-min Rain = 0
KCO1 271031Z 14012KT 23/16 A2985 RMK A01 T02260162  RH  067%=      5-min Rain = 0
KCO1 271032Z 15011KT 23/16 A2985 RMK A01 T02260162  RH  067%=      5-min Rain = 0
KCO1 271033Z 14014KT 23/16 A2985 RMK A01 T02250163  RH  068%=      5-min Rain = 0
KCO1 271034Z 14012KT 23/16 A2985 RMK A01 T02250163  RH  068%=      5-min Rain = 0
KCO1 271035Z 14013KT 23/16 A2985 RMK A01 T02250164  RH  068%=      5-min Rain = 0
KCO1 271036Z 14013KT 23/16 A2985 RMK A01 T02250164  RH  069%=      5-min Rain = 0
KCO1 271037Z 15012KT 22/16 A2985 RMK A01 T02240164  RH  069%=      5-min Rain = 0
KCO1 271038Z 15011KT 22/17 A2985 RMK A01 T02240165  RH  069%=      5-min Rain = 0
KCO1 271039Z 15011KT 22/17 A2985 RMK A01 T02230165  RH  069%=      5-min Rain = 0
KCO1 271040Z 14012KT 22/17 A2985 RMK A01 T02230165  RH  070%=      5-min Rain = 0
KCO1 271041Z 15014KT 22/17 A2985 RMK A01 T02230166  RH  070%=      5-min Rain = 0
KCO1 271042Z 14013KT 22/17 A2985 RMK A01 T02230166  RH  070%=      5-min Rain = 0
KCO1 271043Z 14014KT 22/17 A2985 RMK A01 T02230167  RH  071%=      5-min Rain = 0
KCO1 271044Z 14014KT 22/17 A2985 RMK A01 T02220167  RH  071%=      5-min Rain = 0
KCO1 271045Z 15013KT 22/17 A2985 RMK A01 T02220168  RH  071%=      5-min Rain = 0
KCO1 271046Z 15013KT 22/17 A2985 RMK A01 T02220168  RH  072%=      5-min Rain = 0
KCO1 271047Z 14013KT 22/17 A2985 RMK A01 T02210168  RH  072%=      5-min Rain = 0
KCO1 271048Z 14013KT 22/17 A2985 RMK A01 T02210168  RH  072%=      5-min Rain = 0
KCO1 271049Z 15012KT 22/17 A2985 RMK A01 T02210169  RH  072%=      5-min Rain = 0
KCO1 271050Z 14012KT 22/17 A2985 RMK A01 T02200169  RH  073%=      5-min Rain = 0
KCO1 271051Z 14014KT 22/17 A2985 RMK A01 T02200170  RH  073%=      5-min Rain = 0
KCO1 271052Z 14013KT 22/17 A2985 RMK A01 T02200170  RH  073%=      5-min Rain = 0
KCO1 271053Z 14014KT 22/17 A2985 RMK A01 T02200171  RH  073%=      5-min Rain = 0
KCO1 271054Z 15011KT 22/17 A2986 RMK A01 T02200171  RH  073%=      5-min Rain = 0
KCO1 271055Z 14013KT 22/17 A2986 RMK A01 T02200171  RH  074%=      5-min Rain = 0
KCO1 271056Z 14013KT 22/17 A2986 RMK A01 T02200172  RH  074%=      5-min Rain = 0
KCO1 271057Z 14013KT 22/17 A2986 RMK A01 T02190172  RH  074%=      5-min Rain = 0
KCO1 271058Z 14012KT 22/17 A2986 RMK A01 T02190172  RH  075%=      5-min Rain = 0
KCO1 271059Z 14012KT 22/17 A2986 RMK A01 T02180172  RH  075%=      5-min Rain = 0
KCO1 271100Z 14012KT 22/17 A2986 RMK A01 T02170173  RH  076%=      5-min Rain = 0
KCO1 271101Z 14012KT 22/17 A2986 RMK A01 T02170174  RH  076%=      5-min Rain = 0
KCO1 271102Z 14012KT 22/17 A2986 RMK A01 T02170174  RH  077%=      5-min Rain = 0
KCO1 271103Z 14013KT 22/18 A2986 RMK A01 T02170175  RH  077%=      5-min Rain = 0
KCO1 271104Z 14013KT 22/18 A2986 RMK A01 T02170175  RH  077%=      5-min Rain = 0
KCO1 271105Z 14011KT 22/18 A2986 RMK A01 T02170175  RH  077%=      5-min Rain = 0
KCO1 271106Z 14012KT 22/18 A2986 RMK A01 T02170175  RH  077%=      5-min Rain = 0
KCO1 271107Z 14011KT 22/18 A2986 RMK A01 T02160175  RH  078%=      5-min Rain = 0
KCO1 271108Z 14011KT 22/18 A2986 RMK A01 T02160176  RH  078%=      5-min Rain = 0
KCO1 271109Z 13011KT 22/18 A2986 RMK A01 T02160176  RH  078%=      5-min Rain = 0
KCO1 271110Z 13011KT 22/18 A2986 RMK A01 T02160176  RH  078%=      5-min Rain = 0
KCO1 271111Z 13011KT 22/18 A2986 RMK A01 T02150176  RH  078%=      5-min Rain = 0
KCO1 271112Z 13012KT 21/18 A2986 RMK A01 T02140176  RH  079%=      5-min Rain = 0
KCO1 271113Z 13012KT 21/18 A2986 RMK A01 T02140176  RH  079%=      5-min Rain = 0
KCO1 271114Z 13011KT 21/18 A2986 RMK A01 T02130176  RH  079%=      5-min Rain = 0
KCO1 271115Z 13011KT 21/18 A2986 RMK A01 T02130176  RH  080%=      5-min Rain = 0
KCO1 271116Z 14012KT 21/18 A2987 RMK A01 T02120176  RH  080%=      5-min Rain = 0
KCO1 271117Z 14012KT 21/18 A2986 RMK A01 T02120177  RH  080%=      5-min Rain = 0
KCO1 271118Z 14011KT 21/18 A2986 RMK A01 T02110176  RH  081%=      5-min Rain = 0
KCO1 271119Z 14011KT 21/18 A2986 RMK A01 T02110176  RH  081%=      5-min Rain = 0
KCO1 271120Z 14012KT 21/18 A2986 RMK A01 T02100177  RH  081%=      5-min Rain = 0
KCO1 271121Z 14010KT 21/18 A2986 RMK A01 T02100177  RH  081%=      5-min Rain = 0
KCO1 271122Z 14012KT 21/18 A2986 RMK A01 T02100177  RH  081%=      5-min Rain = 0
KCO1 271123Z 14011KT 21/18 A2986 RMK A01 T02100177  RH  082%=      5-min Rain = 0
KCO1 271124Z 14012KT 21/18 A2986 RMK A01 T02100178  RH  082%=      5-min Rain = 0
KCO1 271125Z 14013KT 21/18 A2986 RMK A01 T02100178  RH  082%=      5-min Rain = 0
KCO1 271126Z 14011KT 21/18 A2986 RMK A01 T02100178  RH  082%=      5-min Rain = 0
KCO1 271127Z 14012KT 21/18 A2986 RMK A01 T02100178  RH  082%=      5-min Rain = 0
KCO1 271128Z 14012KT 21/18 A2986 RMK A01 T02100178  RH  082%=      5-min Rain = 0
KCO1 271129Z 14012KT 21/18 A2986 RMK A01 T02100178  RH  082%=      5-min Rain = 0
KCO1 271130Z 14011KT 21/18 A2986 RMK A01 T02100178  RH  082%=      5-min Rain = 0
KCO1 271131Z 14011KT 21/18 A2986 RMK A01 T02100178  RH  082%=      5-min Rain = 0
KCO1 271132Z 14010KT 21/18 A2986 RMK A01 T02100178  RH  082%=      5-min Rain = 0
KCO1 271133Z 14010KT 21/18 A2986 RMK A01 T02100178  RH  082%=      5-min Rain = 0
KCO1 271134Z 14012KT 21/18 A2986 RMK A01 T02100178  RH  082%=      5-min Rain = 0
KCO1 271135Z 14011KT 21/18 A2986 RMK A01 T02100179  RH  082%=      5-min Rain = 0
KCO1 271136Z 14011KT 21/18 A2987 RMK A01 T02090179  RH  083%=      5-min Rain = 0
KCO1 271137Z 14009KT 21/18 A2987 RMK A01 T02100179  RH  083%=      5-min Rain = 0
KCO1 271138Z 13010KT 21/18 A2987 RMK A01 T02090179  RH  083%=      5-min Rain = 0
KCO1 271139Z 14009KT 21/18 A2987 RMK A01 T02090179  RH  083%=      5-min Rain = 0
KCO1 271140Z 14009KT 21/18 A2987 RMK A01 T02090179  RH  083%=      5-min Rain = 0
KCO1 271141Z 14008KT 21/18 A2987 RMK A01 T02080178  RH  083%=      5-min Rain = 0
KCO1 271142Z 14010KT 21/18 A2987 RMK A01 T02080178  RH  083%=      5-min Rain = 0
KCO1 271143Z 14011KT 21/18 A2987 RMK A01 T02080179  RH  084%=      5-min Rain = 0
KCO1 271144Z 14009KT 21/18 A2987 RMK A01 T02080179  RH  084%=      5-min Rain = 0
KCO1 271145Z 14009KT 21/18 A2987 RMK A01 T02080179  RH  084%=      5-min Rain = 0
KCO1 271146Z 14009KT 21/18 A2987 RMK A01 T02070179  RH  084%=      5-min Rain = 0
KCO1 271147Z 14011KT 21/18 A2987 RMK A01 T02080179  RH  084%=      5-min Rain = 0
KCO1 271148Z 14011KT 21/18 A2987 RMK A01 T02070179  RH  084%=      5-min Rain = 0
KCO1 271149Z 14009KT 21/18 A2987 RMK A01 T02070179  RH  084%=      5-min Rain = 0
KCO1 271150Z 14011KT 21/18 A2987 RMK A01 T02070180  RH  084%=      5-min Rain = 0
KCO1 271151Z 13009KT 21/18 A2987 RMK A01 T02070180  RH  084%=      5-min Rain = 0
KCO1 271152Z 14009KT 21/18 A2987 RMK A01 T02070180  RH  084%=      5-min Rain = 0
KCO1 271153Z 14009KT 21/18 A2987 RMK A01 T02070180  RH  084%=      5-min Rain = 0
KCO1 271154Z 14009KT 21/18 A2987 RMK A01 T02070180  RH  085%=      5-min Rain = 0
KCO1 271155Z 14010KT 21/18 A2987 RMK A01 T02060180  RH  085%=      5-min Rain = 0
KCO1 271156Z 14010KT 21/18 A2987 RMK A01 T02060180  RH  085%=      5-min Rain = 0
KCO1 271157Z 13010KT 21/18 A2987 RMK A01 T02060180  RH  085%=      5-min Rain = 0
KCO1 271158Z 13010KT 21/18 A2987 RMK A01 T02060180  RH  085%=      5-min Rain = 0
KCO1 271159Z 13009KT 21/18 A2987 RMK A01 T02060180  RH  085%=      5-min Rain = 0
KCO1 271200Z 13009KT 21/18 A2987 RMK A01 T02050180  RH  085%=      5-min Rain = 0
KCO1 271201Z 13008KT 21/18 A2987 RMK A01 T02050180  RH  085%=      5-min Rain = 0
KCO1 271202Z 13008KT 21/18 A2987 RMK A01 T02050180  RH  085%=      5-min Rain = 0
KCO1 271203Z 14009KT 21/18 A2987 RMK A01 T02050180  RH  086%=      5-min Rain = 0
KCO1 271204Z 14009KT 21/18 A2987 RMK A01 T02050180  RH  086%=      5-min Rain = 0
KCO1 271205Z 14008KT 21/18 A2987 RMK A01 T02050180  RH  086%=      5-min Rain = 0
KCO1 271206Z 13010KT 20/18 A2987 RMK A01 T02040180  RH  086%=      5-min Rain = 0
KCO1 271207Z 14010KT 21/18 A2987 RMK A01 T02050181  RH  086%=      5-min Rain = 0
KCO1 271208Z 13010KT 21/18 A2987 RMK A01 T02050181  RH  086%=      5-min Rain = 0
KCO1 271209Z 14009KT 21/18 A2987 RMK A01 T02050181  RH  086%=      5-min Rain = 0
KCO1 271210Z 14008KT 21/18 A2987 RMK A01 T02050181  RH  086%=      5-min Rain = 0
KCO1 271211Z 14009KT 21/18 A2987 RMK A01 T02050181  RH  086%=      5-min Rain = 0
KCO1 271212Z 14009KT 21/18 A2987 RMK A01 T02050181  RH  086%=      5-min Rain = 0
KCO1 271213Z 14009KT 21/18 A2987 RMK A01 T02050181  RH  086%=      5-min Rain = 0
KCO1 271214Z 14009KT 21/18 A2987 RMK A01 T02050182  RH  086%=      5-min Rain = 0
KCO1 271215Z 14009KT 21/18 A2987 RMK A01 T02050182  RH  086%=      5-min Rain = 0
KCO1 271216Z 13009KT 21/18 A2987 RMK A01 T02050182  RH  086%=      5-min Rain = 0
KCO1 271217Z 13010KT 21/18 A2987 RMK A01 T02060182  RH  086%=      5-min Rain = 0
KCO1 271218Z 13009KT 21/18 A2987 RMK A01 T02060182  RH  086%=      5-min Rain = 0
KCO1 271219Z 13009KT 21/18 A2987 RMK A01 T02060182  RH  086%=      5-min Rain = 0
KCO1 271220Z 13008KT 21/18 A2987 RMK A01 T02060182  RH  086%=      5-min Rain = 0
KCO1 271221Z 13008KT 21/18 A2987 RMK A01 T02060182  RH  086%=      5-min Rain = 0
KCO1 271222Z 13009KT 21/18 A2987 RMK A01 T02060182  RH  086%=      5-min Rain = 0
KCO1 271223Z 13008KT 21/18 A2987 RMK A01 T02060182  RH  086%=      5-min Rain = 0
KCO1 271224Z 13009KT 21/18 A2987 RMK A01 T02060182  RH  086%=      5-min Rain = 0
KCO1 271225Z 13008KT 21/18 A2987 RMK A01 T02060182  RH  086%=      5-min Rain = 0
KCO1 271226Z 13007KT 21/18 A2987 RMK A01 T02060183  RH  087%=      5-min Rain = 0
KCO1 271227Z 13008KT 21/18 A2987 RMK A01 T02060183  RH  087%=      5-min Rain = 0
KCO1 271228Z 13008KT 21/18 A2988 RMK A01 T02060183  RH  087%=      5-min Rain = 0
KCO1 271229Z 13009KT 21/18 A2988 RMK A01 T02060183  RH  087%=      5-min Rain = 0
KCO1 271230Z 13008KT 21/18 A2988 RMK A01 T02060183  RH  087%=      5-min Rain = 0
KCO1 271231Z 13008KT 21/18 A2988 RMK A01 T02060183  RH  086%=      5-min Rain = 0
KCO1 271232Z 13008KT 21/18 A2988 RMK A01 T02060183  RH  086%=      5-min Rain = 0
KCO1 271233Z 13009KT 21/18 A2988 RMK A01 T02070183  RH  086%=      5-min Rain = 0
KCO1 271234Z 13009KT 21/18 A2988 RMK A01 T02070183  RH  086%=      5-min Rain = 0
KCO1 271235Z 13009KT 21/18 A2988 RMK A01 T02070183  RH  086%=      5-min Rain = 0
KCO1 271236Z 13009KT 21/18 A2988 RMK A01 T02070184  RH  086%=      5-min Rain = 0
KCO1 271237Z 13008KT 21/18 A2988 RMK A01 T02080184  RH  086%=      5-min Rain = 0
KCO1 271238Z 13009KT 21/18 A2988 RMK A01 T02080184  RH  086%=      5-min Rain = 0
KCO1 271239Z 13009KT 21/18 A2988 RMK A01 T02080184  RH  086%=      5-min Rain = 0
KCO1 271240Z 13008KT 21/18 A2988 RMK A01 T02090184  RH  086%=      5-min Rain = 0
KCO1 271241Z 13008KT 21/18 A2988 RMK A01 T02090184  RH  086%=      5-min Rain = 0
KCO1 271242Z 13010KT 21/18 A2988 RMK A01 T02090184  RH  085%=      5-min Rain = 0
KCO1 271243Z 13010KT 21/18 A2988 RMK A01 T02100184  RH  085%=      5-min Rain = 0
KCO1 271244Z 13009KT 21/18 A2988 RMK A01 T02100184  RH  085%=      5-min Rain = 0
KCO1 271245Z 13008KT 21/18 A2988 RMK A01 T02100184  RH  085%=      5-min Rain = 0
KCO1 271246Z 13010KT 21/19 A2988 RMK A01 T02110185  RH  085%=      5-min Rain = 0
KCO1 271247Z 13010KT 21/19 A2988 RMK A01 T02110185  RH  085%=      5-min Rain = 0
KCO1 271248Z 13008KT 21/19 A2988 RMK A01 T02110185  RH  085%=      5-min Rain = 0
KCO1 271249Z 13008KT 21/19 A2988 RMK A01 T02110185  RH  085%=      5-min Rain = 0
KCO1 271250Z 13010KT 21/19 A2988 RMK A01 T02120185  RH  085%=      5-min Rain = 0
KCO1 271251Z 13010KT 21/19 A2988 RMK A01 T02120185  RH  085%=      5-min Rain = 0
KCO1 271252Z 13010KT 21/19 A2988 RMK A01 T02120185  RH  085%=      5-min Rain = 0
KCO1 271253Z 12009KT 21/19 A2988 RMK A01 T02120185  RH  084%=      5-min Rain = 0
KCO1 271254Z 12010KT 21/19 A2988 RMK A01 T02130185  RH  084%=      5-min Rain = 0
KCO1 271255Z 12010KT 21/19 A2988 RMK A01 T02130185  RH  084%=      5-min Rain = 0
KCO1 271256Z 12010KT 21/19 A2988 RMK A01 T02130185  RH  084%=      5-min Rain = 0
KCO1 271257Z 12010KT 21/19 A2988 RMK A01 T02130185  RH  084%=      5-min Rain = 0
KCO1 271258Z 12011KT 21/19 A2988 RMK A01 T02120185  RH  085%=      5-min Rain = 0
KCO1 271259Z 12010KT 21/19 A2988 RMK A01 T02130186  RH  085%=      5-min Rain = 0
KCO1 271300Z 12009KT 21/19 A2988 RMK A01 T02130186  RH  085%=      5-min Rain = 0
KCO1 271301Z 12008KT 21/19 A2988 RMK A01 T02130187  RH  085%=      5-min Rain = 0
KCO1 271302Z 13007KT 21/19 A2988 RMK A01 T02140187  RH  085%=      5-min Rain = 0
KCO1 271303Z 12008KT 21/19 A2988 RMK A01 T02140187  RH  084%=      5-min Rain = 0
KCO1 271304Z 13008KT 22/19 A2988 RMK A01 T02150187  RH  084%=      5-min Rain = 0
KCO1 271305Z 13009KT 22/19 A2988 RMK A01 T02150187  RH  084%=      5-min Rain = 0
KCO1 271306Z 12010KT 22/19 A2988 RMK A01 T02160187  RH  084%=      5-min Rain = 0
KCO1 271307Z 13008KT 22/19 A2988 RMK A01 T02160187  RH  084%=      5-min Rain = 0
KCO1 271308Z 12010KT 22/19 A2988 RMK A01 T02160188  RH  084%=      5-min Rain = 0
KCO1 271309Z 13012KT 22/19 A2988 RMK A01 T02170188  RH  084%=      5-min Rain = 0
KCO1 271310Z 12011KT 22/19 A2988 RMK A01 T02170188  RH  083%=      5-min Rain = 0
KCO1 271311Z 12009KT 22/19 A2988 RMK A01 T02170188  RH  083%=      5-min Rain = 0
KCO1 271312Z 13011KT 22/19 A2988 RMK A01 T02170188  RH  083%=      5-min Rain = 0
KCO1 271313Z 13010KT 22/19 A2988 RMK A01 T02180188  RH  083%=      5-min Rain = 0
KCO1 271314Z 12013KT 22/19 A2988 RMK A01 T02180188  RH  083%=      5-min Rain = 0
KCO1 271315Z 13011KT 22/19 A2988 RMK A01 T02180188  RH  083%=      5-min Rain = 0
KCO1 271316Z 12009KT 22/19 A2988 RMK A01 T02180188  RH  083%=      5-min Rain = 0
KCO1 271317Z 13010KT 22/19 A2988 RMK A01 T02190189  RH  083%=      5-min Rain = 0
KCO1 271318Z 13009KT 22/19 A2988 RMK A01 T02190189  RH  083%=      5-min Rain = 0
KCO1 271319Z 13009KT 22/19 A2988 RMK A01 T02200190  RH  083%=      5-min Rain = 0
KCO1 271320Z 12009KT 22/19 A2988 RMK A01 T02210190  RH  083%=      5-min Rain = 0
KCO1 271321Z 13010KT 22/19 A2988 RMK A01 T02220190  RH  082%=      5-min Rain = 0
KCO1 271322Z 13009KT 22/19 A2988 RMK A01 T02220190  RH  082%=      5-min Rain = 0
KCO1 271323Z 13009KT 22/19 A2988 RMK A01 T02220190  RH  082%=      5-min Rain = 0
KCO1 271324Z 13009KT 22/19 A2988 RMK A01 T02230190  RH  082%=      5-min Rain = 0
KCO1 271325Z 13010KT 22/19 A2988 RMK A01 T02240191  RH  081%=      5-min Rain = 0
KCO1 271326Z 13008KT 22/19 A2988 RMK A01 T02240190  RH  081%=      5-min Rain = 0
KCO1 271327Z 13010KT 23/19 A2988 RMK A01 T02250191  RH  081%=      5-min Rain = 0
KCO1 271328Z 12009KT 23/19 A2989 RMK A01 T02250190  RH  081%=      5-min Rain = 0
KCO1 271329Z 12009KT 23/19 A2989 RMK A01 T02250191  RH  081%=      5-min Rain = 0
KCO1 271330Z 12011KT 23/19 A2989 RMK A01 T02250190  RH  081%=      5-min Rain = 0
KCO1 271331Z 13009KT 23/19 A2989 RMK A01 T02250190  RH  081%=      5-min Rain = 0
KCO1 271332Z 12009KT 23/19 A2989 RMK A01 T02250191  RH  081%=      5-min Rain = 0
KCO1 271333Z 13008KT 23/19 A2989 RMK A01 T02260192  RH  081%=      5-min Rain = 0
KCO1 271334Z 13011KT 23/19 A2989 RMK A01 T02270191  RH  080%=      5-min Rain = 0
KCO1 271335Z 13010KT 23/19 A2989 RMK A01 T02270191  RH  080%=      5-min Rain = 0
KCO1 271336Z 13011KT 23/19 A2989 RMK A01 T02280192  RH  080%=      5-min Rain = 0
KCO1 271337Z 13009KT 23/19 A2989 RMK A01 T02270191  RH  080%=      5-min Rain = 0
KCO1 271338Z 13009KT 23/19 A2989 RMK A01 T02270192  RH  081%=      5-min Rain = 0
KCO1 271339Z 12010KT 23/19 A2989 RMK A01 T02280192  RH  080%=      5-min Rain = 0
KCO1 271340Z 13011KT 23/19 A2988 RMK A01 T02280191  RH  080%=      5-min Rain = 0
KCO1 271341Z 13011KT 23/19 A2988 RMK A01 T02280192  RH  080%=      5-min Rain = 0
KCO1 271342Z 13009KT 23/19 A2988 RMK A01 T02280192  RH  080%=      5-min Rain = 0
KCO1 271343Z 12010KT 23/19 A2988 RMK A01 T02290192  RH  080%=      5-min Rain = 0
KCO1 271344Z 12010KT 23/19 A2988 RMK A01 T02300192  RH  079%=      5-min Rain = 0
KCO1 271345Z 13009KT 23/19 A2988 RMK A01 T02300192  RH  079%=      5-min Rain = 0
KCO1 271346Z 14011KT 23/19 A2988 RMK A01 T02310193  RH  079%=      5-min Rain = 0
KCO1 271347Z 13010KT 23/19 A2988 RMK A01 T02320192  RH  079%=      5-min Rain = 0
KCO1 271348Z 13010KT 23/19 A2988 RMK A01 T02320193  RH  078%=      5-min Rain = 0
KCO1 271349Z 12009KT 23/19 A2988 RMK A01 T02320193  RH  078%=      5-min Rain = 0
KCO1 271350Z 12011KT 23/19 A2988 RMK A01 T02330193  RH  078%=      5-min Rain = 0
KCO1 271351Z 13012KT 23/19 A2988 RMK A01 T02330193  RH  078%=      5-min Rain = 0
KCO1 271352Z 13011KT 23/19 A2988 RMK A01 T02330192  RH  078%=      5-min Rain = 0
KCO1 271353Z 12009KT 23/19 A2988 RMK A01 T02330193  RH  078%=      5-min Rain = 0
KCO1 271354Z 13010KT 23/19 A2988 RMK A01 T02340194  RH  078%=      5-min Rain = 0
KCO1 271355Z 13009KT 23/19 A2988 RMK A01 T02340193  RH  078%=      5-min Rain = 0
KCO1 271356Z 14007KT 24/19 A2988 RMK A01 T02350194  RH  078%=      5-min Rain = 0
KCO1 271357Z 14009KT 24/19 A2988 RMK A01 T02360194  RH  077%=      5-min Rain = 0
KCO1 271358Z 14008KT 24/19 A2988 RMK A01 T02360193  RH  077%=      5-min Rain = 0
KCO1 271359Z 13010KT 24/19 A2988 RMK A01 T02370193  RH  076%=      5-min Rain = 0
KCO1 271400Z 12010KT 24/19 A2988 RMK A01 T02370193  RH  076%=      5-min Rain = 0
KCO1 271401Z 12010KT 24/19 A2988 RMK A01 T02370193  RH  076%=      5-min Rain = 0
KCO1 271402Z 13009KT 24/19 A2988 RMK A01 T02370193  RH  077%=      5-min Rain = 0
KCO1 271403Z 14009KT 24/19 A2988 RMK A01 T02370193  RH  077%=      5-min Rain = 0
KCO1 271404Z 13009KT 24/19 A2988 RMK A01 T02380193  RH  076%=      5-min Rain = 0
KCO1 271405Z 13009KT 24/19 A2988 RMK A01 T02390193  RH  076%=      5-min Rain = 0
KCO1 271406Z 13009KT 24/19 A2988 RMK A01 T02400194  RH  075%=      5-min Rain = 0
KCO1 271407Z 12007KT 24/19 A2988 RMK A01 T02400194  RH  075%=      5-min Rain = 0
KCO1 271408Z 12010KT 24/19 A2988 RMK A01 T02410194  RH  075%=      5-min Rain = 0
KCO1 271409Z 13008KT 24/19 A2988 RMK A01 T02410194  RH  075%=      5-min Rain = 0
KCO1 271410Z 13009KT 24/19 A2988 RMK A01 T02410193  RH  075%=      5-min Rain = 0
KCO1 271411Z 12010KT 24/19 A2988 RMK A01 T02420193  RH  074%=      5-min Rain = 0
KCO1 271412Z 12008KT 24/19 A2988 RMK A01 T02430193  RH  073%=      5-min Rain = 0
KCO1 271413Z 12008KT 24/19 A2988 RMK A01 T02430194  RH  074%=      5-min Rain = 0
KCO1 271414Z 12008KT 24/19 A2988 RMK A01 T02440194  RH  074%=      5-min Rain = 0
KCO1 271415Z 10008KT 24/20 A2988 RMK A01 T02440195  RH  074%=      5-min Rain = 0
KCO1 271416Z 11009KT 25/20 A2988 RMK A01 T02450195  RH  074%=      5-min Rain = 0
KCO1 271417Z 11008KT 25/19 A2988 RMK A01 T02450194  RH  073%=      5-min Rain = 0
KCO1 271418Z 12009KT 25/19 A2988 RMK A01 T02450194  RH  073%=      5-min Rain = 0
KCO1 271419Z 11007KT 25/19 A2988 RMK A01 T02460194  RH  073%=      5-min Rain = 0
KCO1 271420Z 11007KT 25/20 A2988 RMK A01 T02460195  RH  073%=      5-min Rain = 0
KCO1 271421Z 11009KT 25/20 A2988 RMK A01 T02470195  RH  073%=      5-min Rain = 0
KCO1 271422Z 11008KT 25/19 A2988 RMK A01 T02470194  RH  072%=      5-min Rain = 0
KCO1 271423Z 11008KT 25/19 A2988 RMK A01 T02480194  RH  072%=      5-min Rain = 0
KCO1 271424Z 12009KT 25/19 A2988 RMK A01 T02490194  RH  071%=      5-min Rain = 0
KCO1 271425Z 11009KT 25/19 A2988 RMK A01 T02490192  RH  071%=      5-min Rain = 0
KCO1 271426Z 11007KT 25/20 A2988 RMK A01 T02500195  RH  071%=      5-min Rain = 0
KCO1 271427Z 12007KT 25/20 A2988 RMK A01 T02510195  RH  071%=      5-min Rain = 0
KCO1 271428Z 12009KT 25/19 A2988 RMK A01 T02520193  RH  070%=      5-min Rain = 0
KCO1 271429Z 13008KT 25/19 A2988 RMK A01 T02520193  RH  070%=      5-min Rain = 0
KCO1 271430Z 13008KT 25/19 A2988 RMK A01 T02530192  RH  069%=      5-min Rain = 0
KCO1 271431Z 13008KT 25/19 A2988 RMK A01 T02540187  RH  066%=      5-min Rain = 0
KCO1 271432Z 13008KT 25/19 A2988 RMK A01 T02540187  RH  067%=      5-min Rain = 0
KCO1 271433Z 13009KT 25/19 A2988 RMK A01 T02540190  RH  068%=      5-min Rain = 0
KCO1 271434Z 14009KT 25/19 A2988 RMK A01 T02540186  RH  066%=      5-min Rain = 0
KCO1 271435Z 15008KT 26/19 A2988 RMK A01 T02550185  RH  065%=      5-min Rain = 0
KCO1 271436Z 15006KT 26/19 A2988 RMK A01 T02550186  RH  065%=      5-min Rain = 0
KCO1 271437Z 15007KT 26/19 A2988 RMK A01 T02560185  RH  064%=      5-min Rain = 0
KCO1 271438Z 14008KT 26/19 A2988 RMK A01 T02570187  RH  065%=      5-min Rain = 0
KCO1 271439Z 14008KT 26/19 A2989 RMK A01 T02570189  RH  066%=      5-min Rain = 0
KCO1 271440Z 14008KT 26/19 A2989 RMK A01 T02580188  RH  066%=      5-min Rain = 0
KCO1 271441Z 13009KT 26/19 A2989 RMK A01 T02580190  RH  066%=      5-min Rain = 0
KCO1 271442Z 12009KT 26/19 A2989 RMK A01 T02580192  RH  067%=      5-min Rain = 0
KCO1 271443Z 12009KT 26/19 A2989 RMK A01 T02580190  RH  066%=      5-min Rain = 0
KCO1 271444Z 12008KT 26/19 A2989 RMK A01 T02580192  RH  067%=      5-min Rain = 0
KCO1 271445Z 13008KT 26/19 A2989 RMK A01 T02580192  RH  067%=      5-min Rain = 0
KCO1 271446Z 14009KT 26/19 A2989 RMK A01 T02590189  RH  066%=      5-min Rain = 0
KCO1 271447Z 13006KT 26/19 A2989 RMK A01 T02590190  RH  065%=      5-min Rain = 0
KCO1 271448Z 14005KT 26/19 A2989 RMK A01 T02600191  RH  066%=      5-min Rain = 0
KCO1 271449Z 13006KT 26/19 A2989 RMK A01 T02610190  RH  065%=      5-min Rain = 0
KCO1 271450Z 13007KT 26/19 A2989 RMK A01 T02620191  RH  065%=      5-min Rain = 0
KCO1 271451Z 14007KT 26/19 A2989 RMK A01 T02620189  RH  064%=      5-min Rain = 0
KCO1 271452Z 15006KT 26/19 A2988 RMK A01 T02610188  RH  064%=      5-min Rain = 0
KCO1 271453Z 14007KT 26/19 A2988 RMK A01 T02610188  RH  064%=      5-min Rain = 0
KCO1 271454Z 14007KT 26/19 A2988 RMK A01 T02620186  RH  063%=      5-min Rain = 0
KCO1 271455Z 15005KT 26/19 A2988 RMK A01 T02630185  RH  062%=      5-min Rain = 0
KCO1 271456Z 14006KT 26/19 A2988 RMK A01 T02630186  RH  063%=      5-min Rain = 0
KCO1 271457Z 13006KT 26/19 A2988 RMK A01 T02640190  RH  064%=      5-min Rain = 0
KCO1 271458Z 12006KT 27/19 A2988 RMK A01 T02650190  RH  063%=      5-min Rain = 0
KCO1 271459Z 15008KT 27/19 A2988 RMK A01 T02650187  RH  062%=      5-min Rain = 0
KCO1 271500Z 15008KT 27/19 A2988 RMK A01 T02660185  RH  061%=      5-min Rain = 0
KCO1 271501Z 14007KT 27/18 A2988 RMK A01 T02660184  RH  061%=      5-min Rain = 0
KCO1 271502Z 15005KT 27/18 A2988 RMK A01 T02650183  RH  061%=      5-min Rain = 0
KCO1 271503Z 15006KT 27/18 A2988 RMK A01 T02660184  RH  061%=      5-min Rain = 0
KCO1 271504Z 13007KT 27/19 A2988 RMK A01 T02670185  RH  061%=      5-min Rain = 0
KCO1 271505Z 12007KT 27/19 A2988 RMK A01 T02670187  RH  062%=      5-min Rain = 0
KCO1 271506Z 13006KT 27/19 A2988 RMK A01 T02680187  RH  061%=      5-min Rain = 0
KCO1 271507Z 13008KT 27/19 A2988 RMK A01 T02690187  RH  061%=      5-min Rain = 0
KCO1 271508Z 13005KT 27/19 A2988 RMK A01 T02690188  RH  061%=      5-min Rain = 0
KCO1 271509Z 12007KT 27/19 A2988 RMK A01 T02680187  RH  061%=      5-min Rain = 0
KCO1 271510Z 12007KT 27/19 A2988 RMK A01 T02690189  RH  062%=      5-min Rain = 0
KCO1 271511Z 12006KT 27/19 A2988 RMK A01 T02700188  RH  061%=      5-min Rain = 0
KCO1 271512Z 11007KT 27/19 A2988 RMK A01 T02710188  RH  060%=      5-min Rain = 0
KCO1 271513Z 12009KT 27/19 A2988 RMK A01 T02710188  RH  061%=      5-min Rain = 0
KCO1 271514Z 13007KT 27/19 A2988 RMK A01 T02720187  RH  060%=      5-min Rain = 0
KCO1 271515Z 12007KT 27/19 A2988 RMK A01 T02720189  RH  060%=      5-min Rain = 0
KCO1 271516Z 11008KT 27/19 A2988 RMK A01 T02730187  RH  059%=      5-min Rain = 0
KCO1 271517Z 10007KT 27/19 A2988 RMK A01 T02710186  RH  060%=      5-min Rain = 0
KCO1 271518Z 12008KT 27/19 A2988 RMK A01 T02710187  RH  060%=      5-min Rain = 0
KCO1 271519Z 13007KT 27/19 A2988 RMK A01 T02710187  RH  060%=      5-min Rain = 0
KCO1 271520Z 11006KT 27/19 A2988 RMK A01 T02710188  RH  060%=      5-min Rain = 0
KCO1 271521Z 13007KT 27/19 A2988 RMK A01 T02720188  RH  060%=      5-min Rain = 0
KCO1 271522Z 14007KT 27/19 A2988 RMK A01 T02740186  RH  059%=      5-min Rain = 0
KCO1 271523Z 12006KT 27/19 A2988 RMK A01 T02740185  RH  058%=      5-min Rain = 0
KCO1 271524Z 11009KT 28/19 A2988 RMK A01 T02750187  RH  059%=      5-min Rain = 0
KCO1 271525Z 11007KT 28/19 A2988 RMK A01 T02750189  RH  059%=      5-min Rain = 0
KCO1 271526Z 12008KT 28/19 A2988 RMK A01 T02750187  RH  059%=      5-min Rain = 0
KCO1 271527Z 12008KT 28/19 A2988 RMK A01 T02750188  RH  059%=      5-min Rain = 0
KCO1 271528Z 11007KT 28/19 A2988 RMK A01 T02750187  RH  059%=      5-min Rain = 0
KCO1 271529Z 11008KT 28/19 A2988 RMK A01 T02760188  RH  059%=      5-min Rain = 0
KCO1 271530Z 12007KT 28/19 A2988 RMK A01 T02770186  RH  058%=      5-min Rain = 0
KCO1 271531Z 11008KT 28/19 A2988 RMK A01 T02770186  RH  058%=      5-min Rain = 0
KCO1 271532Z 12005KT 28/19 A2988 RMK A01 T02780189  RH  058%=      5-min Rain = 0
KCO1 271533Z 11004KT 28/19 A2988 RMK A01 T02810189  RH  058%=      5-min Rain = 0
KCO1 271534Z 12007KT 28/19 A2988 RMK A01 T02820185  RH  056%=      5-min Rain = 0
KCO1 271535Z 11006KT 28/19 A2988 RMK A01 T02820186  RH  056%=      5-min Rain = 0
KCO1 271536Z 11006KT 28/19 A2988 RMK A01 T02820188  RH  056%=      5-min Rain = 0
KCO1 271537Z 10007KT 28/19 A2988 RMK A01 T02840187  RH  056%=      5-min Rain = 0
KCO1 271538Z 09007KT 28/19 A2988 RMK A01 T02840187  RH  056%=      5-min Rain = 0
KCO1 271539Z 09007KT 28/19 A2988 RMK A01 T02840185  RH  055%=      5-min Rain = 0
KCO1 271540Z 11008KT 28/19 A2988 RMK A01 T02830186  RH  056%=      5-min Rain = 0
KCO1 271541Z 10008KT 28/19 A2988 RMK A01 T02830185  RH  055%=      5-min Rain = 0
KCO1 271542Z 11006KT 29/18 A2988 RMK A01 T02850184  RH  054%=      5-min Rain = 0
KCO1 271543Z 11007KT 29/18 A2988 RMK A01 T02860184  RH  054%=      5-min Rain = 0
KCO1 271544Z 13006KT 29/18 A2988 RMK A01 T02860181  RH  053%=      5-min Rain = 0
KCO1 271545Z 13004KT 29/18 A2988 RMK A01 T02860180  RH  053%=      5-min Rain = 0
KCO1 271546Z 12003KT 29/18 A2988 RMK A01 T02850179  RH  052%=      5-min Rain = 0
KCO1 271547Z 15005KT 29/18 A2988 RMK A01 T02860181  RH  053%=      5-min Rain = 0
KCO1 271548Z 10005KT 29/19 A2988 RMK A01 T02880186  RH  054%=      5-min Rain = 0
KCO1 271549Z 10007KT 29/19 A2988 RMK A01 T02910186  RH  053%=      5-min Rain = 0
KCO1 271550Z 10005KT 29/18 A2988 RMK A01 T02910181  RH  052%=      5-min Rain = 0
KCO1 271551Z 10005KT 29/18 A2988 RMK A01 T02900182  RH  052%=      5-min Rain = 0
KCO1 271552Z 10004KT 29/18 A2987 RMK A01 T02890181  RH  052%=      5-min Rain = 0
KCO1 271553Z 09003KT 29/18 A2987 RMK A01 T02880180  RH  052%=      5-min Rain = 0
KCO1 271554Z 09004KT 29/18 A2987 RMK A01 T02880183  RH  053%=      5-min Rain = 0
KCO1 271555Z 10005KT 29/19 A2988 RMK A01 T02900185  RH  053%=      5-min Rain = 0
KCO1 271556Z 10005KT 29/18 A2987 RMK A01 T02920184  RH  052%=      5-min Rain = 0
KCO1 271557Z 10006KT 29/18 A2987 RMK A01 T02930183  RH  051%=      5-min Rain = 0
KCO1 271558Z 08006KT 29/18 A2988 RMK A01 T02930183  RH  051%=      5-min Rain = 0
KCO1 271559Z 09006KT 29/18 A2988 RMK A01 T02940184  RH  052%=      5-min Rain = 0
KCO1 271600Z 11004KT 30/18 A2987 RMK A01 T02950180  RH  050%=      5-min Rain = 0
KCO1 271601Z 08004KT 29/18 A2987 RMK A01 T02940182  RH  051%=      5-min Rain = 0
KCO1 271602Z 07004KT 29/19 A2987 RMK A01 T02930185  RH  052%=      5-min Rain = 0
KCO1 271603Z 07005KT 29/19 A2987 RMK A01 T02930185  RH  052%=      5-min Rain = 0
KCO1 271604Z 10006KT 29/18 A2987 RMK A01 T02940183  RH  051%=      5-min Rain = 0
KCO1 271605Z 11004KT 29/18 A2987 RMK A01 T02940182  RH  051%=      5-min Rain = 0
KCO1 271606Z 11008KT 30/18 A2987 RMK A01 T02950182  RH  050%=      5-min Rain = 0
KCO1 271607Z 11006KT 30/18 A2987 RMK A01 T02960182  RH  050%=      5-min Rain = 0
KCO1 271608Z 13005KT 29/18 A2987 RMK A01 T02940180  RH  050%=      5-min Rain = 0
KCO1 271609Z 15004KT 29/18 A2987 RMK A01 T02940177  RH  049%=      5-min Rain = 0
KCO1 271610Z 13005KT 29/18 A2987 RMK A01 T02940177  RH  050%=      5-min Rain = 0
KCO1 271611Z 10006KT 30/19 A2987 RMK A01 T02950186  RH  052%=      5-min Rain = 0
KCO1 271612Z 08005KT 30/19 A2987 RMK A01 T02950187  RH  052%=      5-min Rain = 0
KCO1 271613Z 06005KT 29/19 A2987 RMK A01 T02930185  RH  052%=      5-min Rain = 0
KCO1 271614Z 07006KT 29/19 A2987 RMK A01 T02920188  RH  053%=      5-min Rain = 0
KCO1 271615Z 09006KT 30/19 A2987 RMK A01 T02950186  RH  052%=      5-min Rain = 0
KCO1 271616Z 08005KT 30/19 A2987 RMK A01 T02980186  RH  051%=      5-min Rain = 0
KCO1 271617Z 08005KT 30/18 A2987 RMK A01 T02990184  RH  050%=      5-min Rain = 0
KCO1 271618Z 08003KT 30/19 A2987 RMK A01 T02990186  RH  051%=      5-min Rain = 0
KCO1 271619Z 08003KT 30/19 A2987 RMK A01 T02990190  RH  052%=      5-min Rain = 0
KCO1 271620Z 10005KT 30/19 A2987 RMK A01 T03010192  RH  052%=      5-min Rain = 0
KCO1 271621Z 10005KT 30/19 A2987 RMK A01 T03020190  RH  051%=      5-min Rain = 0
KCO1 271622Z 08005KT 30/19 A2987 RMK A01 T03010188  RH  051%=      5-min Rain = 0
KCO1 271623Z 08005KT 30/19 A2987 RMK A01 T02990186  RH  051%=      5-min Rain = 0
KCO1 271624Z 07004KT 30/18 A2987 RMK A01 T02970184  RH  051%=      5-min Rain = 0
KCO1 271625Z 07004KT 30/19 A2987 RMK A01 T02970186  RH  051%=      5-min Rain = 0
KCO1 271631Z 05005KT 30/19 A2987 RMK A01 T03020190  RH  051%=      5-min Rain = 0
KCO1 271632Z 07007KT 31/19 A2987 RMK A01 T03060192  RH  051%=      5-min Rain = 0
KCO1 271633Z 06007KT 31/19 A2987 RMK A01 T03070188  RH  049%=      5-min Rain = 0
KCO1 271634Z 06005KT 31/19 A2987 RMK A01 T03050187  RH  049%=      5-min Rain = 0
KCO1 271635Z 08004KT 30/19 A2987 RMK A01 T03040186  RH  049%=      5-min Rain = 0
KCO1 271636Z 08005KT 30/19 A2987 RMK A01 T03030186  RH  049%=      5-min Rain = 0
KCO1 271637Z 07006KT 30/19 A2987 RMK A01 T03030189  RH  051%=      5-min Rain = 0
KCO1 271638Z 06005KT 30/19 A2987 RMK A01 T03040186  RH  049%=      5-min Rain = 0
KCO1 271639Z 05005KT 30/19 A2987 RMK A01 T03040190  RH  051%=      5-min Rain = 0
KCO1 271640Z 05007KT 31/19 A2987 RMK A01 T03060189  RH  049%=      5-min Rain = 0
KCO1 271641Z 06007KT 31/19 A2987 RMK A01 T03070185  RH  048%=      5-min Rain = 0
KCO1 271642Z 06005KT 31/18 A2987 RMK A01 T03060183  RH  048%=      5-min Rain = 0
KCO1 271643Z 08005KT 30/18 A2987 RMK A01 T03020183  RH  049%=      5-min Rain = 0
KCO1 271644Z 08004KT 30/18 A2987 RMK A01 T03010184  RH  050%=      5-min Rain = 0
KCO1 271645Z 04007KT 30/18 A2987 RMK A01 T03010184  RH  049%=      5-min Rain = 0
KCO1 271646Z 02006KT 30/18 A2987 RMK A01 T03020182  RH  049%=      5-min Rain = 0
KCO1 271647Z 03006KT 30/18 A2987 RMK A01 T03010182  RH  049%=      5-min Rain = 0
KCO1 271648Z 06006KT 30/19 A2987 RMK A01 T03020185  RH  050%=      5-min Rain = 0
KCO1 271649Z 07005KT 31/19 A2987 RMK A01 T03050186  RH  049%=      5-min Rain = 0
KCO1 271650Z 05004KT 31/18 A2987 RMK A01 T03070182  RH  047%=      5-min Rain = 0
KCO1 271651Z 04004KT 31/18 A2987 RMK A01 T03060181  RH  047%=      5-min Rain = 0
KCO1 271652Z 02006KT 30/18 A2987 RMK A01 T03040180  RH  047%=      5-min Rain = 0
KCO1 271653Z 05007KT 30/18 A2987 RMK A01 T03040181  RH  048%=      5-min Rain = 0
KCO1 271654Z 04006KT 30/18 A2987 RMK A01 T03030181  RH  048%=      5-min Rain = 0
KCO1 271655Z 03005KT 30/18 A2987 RMK A01 T03030181  RH  048%=      5-min Rain = 0
KCO1 271656Z 35002KT 30/18 A2987 RMK A01 T03030180  RH  048%=      5-min Rain = 0
KCO1 271657Z 32003KT 30/18 A2987 RMK A01 T03040178  RH  047%=      5-min Rain = 0
KCO1 271658Z 34002KT 31/18 A2987 RMK A01 T03060177  RH  046%=      5-min Rain = 0
KCO1 271659Z 02006KT 31/18 A2987 RMK A01 T03070180  RH  047%=      5-min Rain = 0
KCO1 271700Z 04005KT 31/18 A2987 RMK A01 T03080181  RH  047%=      5-min Rain = 0
KCO1 271701Z 04006KT 31/18 A2987 RMK A01 T03060183  RH  048%=      5-min Rain = 0
KCO1 271702Z 05004KT 31/19 A2987 RMK A01 T03060185  RH  048%=      5-min Rain = 0
KCO1 271703Z 04004KT 31/18 A2987 RMK A01 T03070182  RH  047%=      5-min Rain = 0
KCO1 271704Z 00003KT 31/18 A2986 RMK A01 T03070182  RH  047%=      5-min Rain = 0
KCO1 271705Z 36003KT 31/18 A2986 RMK A01 T03060181  RH  047%=      5-min Rain = 0
KCO1 271706Z 02005KT 31/18 A2986 RMK A01 T03060182  RH  048%=      5-min Rain = 0
KCO1 271707Z 05005KT 31/18 A2986 RMK A01 T03050184  RH  048%=      5-min Rain = 0
KCO1 271708Z 02003KT 31/19 A2986 RMK A01 T03070186  RH  048%=      5-min Rain = 0
KCO1 271709Z 05007KT 31/19 A2986 RMK A01 T03100185  RH  047%=      5-min Rain = 0
KCO1 271710Z 04007KT 31/18 A2986 RMK A01 T03090184  RH  047%=      5-min Rain = 0
KCO1 271711Z 35005KT 31/18 A2986 RMK A01 T03070181  RH  047%=      5-min Rain = 0
KCO1 271712Z 36006KT 31/18 A2986 RMK A01 T03050180  RH  047%=      5-min Rain = 0
KCO1 271713Z 01006KT 31/18 A2986 RMK A01 T03050181  RH  047%=      5-min Rain = 0
KCO1 271714Z 05004KT 31/18 A2986 RMK A01 T03050182  RH  048%=      5-min Rain = 0
KCO1 271715Z 05006KT 31/19 A2986 RMK A01 T03070185  RH  048%=      5-min Rain = 0
KCO1 271716Z 05006KT 31/19 A2986 RMK A01 T03090188  RH  048%=      5-min Rain = 0
KCO1 271717Z 05005KT 31/19 A2986 RMK A01 T03100190  RH  049%=      5-min Rain = 0
KCO1 271718Z 04007G12KT 31/19 A2986 RMK A01 T03120189  RH  048%=      5-min Rain = 0
KCO1 271719Z 04009KT 31/19 A2986 RMK A01 T03140186  RH  047%=      5-min Rain = 0
KCO1 271720Z 04008KT 31/19 A2986 RMK A01 T03120186  RH  047%=      5-min Rain = 0
KCO1 271721Z 05007KT 31/19 A2986 RMK A01 T03120187  RH  048%=      5-min Rain = 0
KCO1 271722Z 06008KT 31/19 A2986 RMK A01 T03110190  RH  048%=      5-min Rain = 0
KCO1 271723Z 05005KT 31/19 A2986 RMK A01 T03120190  RH  048%=      5-min Rain = 0
KCO1 271724Z 03006KT 31/19 A2986 RMK A01 T03130188  RH  047%=      5-min Rain = 0
KCO1 271725Z 03006KT 31/18 A2986 RMK A01 T03130184  RH  046%=      5-min Rain = 0
KCO1 271726Z 03006KT 31/18 A2986 RMK A01 T03120182  RH  046%=      5-min Rain = 0
KCO1 271727Z 05004KT 31/18 A2986 RMK A01 T03110182  RH  046%=      5-min Rain = 0
KCO1 271728Z 05007KT 31/18 A2986 RMK A01 T03100183  RH  047%=      5-min Rain = 0
KCO1 271729Z 03006KT 31/18 A2986 RMK A01 T03110183  RH  046%=      5-min Rain = 0
KCO1 271730Z 04003KT 31/19 A2986 RMK A01 T03110185  RH  047%=      5-min Rain = 0
KCO1 271731Z 07004KT 31/19 A2986 RMK A01 T03140188  RH  047%=      5-min Rain = 0
KCO1 271732Z 09003KT 32/18 A2986 RMK A01 T03160179  RH  044%=      5-min Rain = 0
KCO1 271733Z 07003KT 32/18 A2985 RMK A01 T03150176  RH  043%=      5-min Rain = 0
KCO1 271734Z 07001KT 32/18 A2985 RMK A01 T03150176  RH  043%=      5-min Rain = 0
KCO1 271735Z 03001KT 32/18 A2985 RMK A01 T03160180  RH  044%=      5-min Rain = 0
KCO1 271736Z 06006KT 32/18 A2985 RMK A01 T03160181  RH  044%=      5-min Rain = 0
KCO1 271737Z 06008KT 32/19 A2985 RMK A01 T03170187  RH  046%=      5-min Rain = 0
KCO1 271738Z 06005KT 32/19 A2985 RMK A01 T03160192  RH  048%=      5-min Rain = 0
KCO1 271739Z 02007KT 32/19 A2985 RMK A01 T03150191  RH  048%=      5-min Rain = 0
KCO1 271740Z 02011G19KT 32/19 A2985 RMK A01 T03150189  RH  047%=      5-min Rain = 0
KCO1 271741Z 13007G15KT 32/19 A2985 RMK A01 T03160186  RH  046%=      5-min Rain = 0
KCO1 271742Z 08008KT 32/18 A2985 RMK A01 T03170184  RH  045%=      5-min Rain = 0
KCO1 271743Z 07005KT 32/18 A2985 RMK A01 T03160181  RH  045%=      5-min Rain = 0
KCO1 271744Z 05005KT 31/18 A2985 RMK A01 T03140181  RH  045%=      5-min Rain = 0
KCO1 271745Z 03009KT 32/19 A2985 RMK A01 T03150187  RH  047%=      5-min Rain = 0
KCO1 271746Z 08009G15KT 32/19 A2985 RMK A01 T03170189  RH  047%=      5-min Rain = 0
KCO1 271747Z 07004KT 32/19 A2985 RMK A01 T03210192  RH  047%=      5-min Rain = 0
KCO1 271748Z 07005KT 32/19 A2984 RMK A01 T03230192  RH  046%=      5-min Rain = 0
KCO1 271749Z 06005KT 32/20 A2984 RMK A01 T03220195  RH  047%=      5-min Rain = 0
KCO1 271750Z 10007KT 32/19 A2984 RMK A01 T03210190  RH  046%=      5-min Rain = 0
KCO1 271751Z 10007KT 32/19 A2984 RMK A01 T03200186  RH  045%=      5-min Rain = 0
KCO1 271752Z 11006KT 32/18 A2984 RMK A01 T03180183  RH  045%=      5-min Rain = 0
KCO1 271753Z 09007KT 32/19 A2984 RMK A01 T03150188  RH  047%=      5-min Rain = 0
KCO1 271754Z 10004KT 32/18 A2984 RMK A01 T03150183  RH  045%=      5-min Rain = 0
KCO1 271755Z 07005KT 32/19 A2984 RMK A01 T03160187  RH  046%=      5-min Rain = 0
KCO1 271756Z 07009KT 32/19 A2984 RMK A01 T03190193  RH  047%=      5-min Rain = 0
KCO1 271757Z 07006KT 32/19 A2984 RMK A01 T03180194  RH  048%=      5-min Rain = 0
KCO1 271758Z 05007KT 32/19 A2984 RMK A01 T03180194  RH  048%=      5-min Rain = 0
KCO1 271759Z 05008KT 32/19 A2984 RMK A01 T03170191  RH  047%=      5-min Rain = 0
KCO1 271800Z 04009KT 32/19 A2984 RMK A01 T03160190  RH  047%=      5-min Rain = 0
KCO1 271801Z 06007KT 32/19 A2984 RMK A01 T03170191  RH  047%=      5-min Rain = 0
KCO1 271802Z 05006KT 32/19 A2984 RMK A01 T03180192  RH  047%=      5-min Rain = 0
KCO1 271803Z 10006KT 32/19 A2984 RMK A01 T03220192  RH  046%=      5-min Rain = 0
KCO1 271804Z 09008KT 33/19 A2984 RMK A01 T03250191  RH  045%=      5-min Rain = 0
KCO1 271805Z 07009KT 33/19 A2984 RMK A01 T03250191  RH  045%=      5-min Rain = 0
KCO1 271806Z 05010KT 32/19 A2984 RMK A01 T03230192  RH  046%=      5-min Rain = 0
KCO1 271807Z 07009KT 32/19 A2984 RMK A01 T03220191  RH  046%=      5-min Rain = 0
KCO1 271808Z 09008KT 32/19 A2984 RMK A01 T03220192  RH  046%=      5-min Rain = 0
KCO1 271809Z 10006KT 32/20 A2983 RMK A01 T03210195  RH  047%=      5-min Rain = 0
KCO1 271810Z 07009KT 32/20 A2983 RMK A01 T03230197  RH  047%=      5-min Rain = 0
KCO1 271811Z 08011KT 32/20 A2983 RMK A01 T03240196  RH  047%=      5-min Rain = 0
KCO1 271812Z 10010KT 32/19 A2983 RMK A01 T03240193  RH  046%=      5-min Rain = 0
KCO1 271813Z 07009KT 32/19 A2983 RMK A01 T03220193  RH  046%=      5-min Rain = 0
KCO1 271814Z 05010KT 32/19 A2983 RMK A01 T03220190  RH  046%=      5-min Rain = 0
KCO1 271815Z 05005KT 32/19 A2983 RMK A01 T03190187  RH  045%=      5-min Rain = 0
KCO1 271816Z 09009KT 32/19 A2983 RMK A01 T03190189  RH  046%=      5-min Rain = 0
KCO1 271817Z 08006KT 32/18 A2983 RMK A01 T03180184  RH  045%=      5-min Rain = 0
KCO1 271818Z 10006KT 32/19 A2983 RMK A01 T03160185  RH  046%=      5-min Rain = 0
KCO1 271819Z 09008KT 32/18 A2983 RMK A01 T03180184  RH  045%=      5-min Rain = 0
KCO1 271820Z 08008KT 32/19 A2983 RMK A01 T03190189  RH  046%=      5-min Rain = 0
KCO1 271821Z 08008KT 32/19 A2983 RMK A01 T03200194  RH  047%=      5-min Rain = 0
KCO1 271822Z 08009KT 32/20 A2983 RMK A01 T03220195  RH  047%=      5-min Rain = 0
KCO1 271823Z 07011KT 32/19 A2983 RMK A01 T03210194  RH  047%=      5-min Rain = 0
KCO1 271824Z 06010KT 32/20 A2983 RMK A01 T03190195  RH  048%=      5-min Rain = 0
KCO1 271825Z 06013KT 32/20 A2983 RMK A01 T03190197  RH  048%=      5-min Rain = 0
KCO1 271826Z 06010KT 32/20 A2983 RMK A01 T03180196  RH  048%=      5-min Rain = 0
KCO1 271827Z 06011KT 32/20 A2983 RMK A01 T03180196  RH  048%=      5-min Rain = 0
KCO1 271828Z 05011KT 32/19 A2983 RMK A01 T03190191  RH  047%=      5-min Rain = 0
KCO1 271829Z 09009KT 32/19 A2983 RMK A01 T03200194  RH  047%=      5-min Rain = 0
KCO1 271830Z 09011KT 32/19 A2982 RMK A01 T03210192  RH  047%=      5-min Rain = 0
KCO1 271831Z 09010KT 32/19 A2982 RMK A01 T03220190  RH  046%=      5-min Rain = 0
KCO1 271832Z 09009KT 32/19 A2982 RMK A01 T03230190  RH  045%=      5-min Rain = 0
KCO1 271833Z 09011KT 32/20 A2982 RMK A01 T03220195  RH  047%=      5-min Rain = 0
KCO1 271834Z 07010KT 32/19 A2982 RMK A01 T03220194  RH  047%=      5-min Rain = 0
KCO1 271835Z 07009KT 32/20 A2982 RMK A01 T03220195  RH  047%=      5-min Rain = 0
KCO1 271836Z 08009KT 32/20 A2982 RMK A01 T03240195  RH  047%=      5-min Rain = 0
KCO1 271837Z 08011KT 33/19 A2982 RMK A01 T03260190  RH  045%=      5-min Rain = 0
KCO1 271838Z 09010KT 32/19 A2982 RMK A01 T03240191  RH  046%=      5-min Rain = 0
KCO1 271839Z 06010KT 33/20 A2982 RMK A01 T03250199  RH  048%=      5-min Rain = 0
KCO1 271840Z 07010KT 33/20 A2982 RMK A01 T03270199  RH  047%=      5-min Rain = 0
KCO1 271841Z 09012KT 33/20 A2982 RMK A01 T03260195  RH  046%=      5-min Rain = 0
KCO1 271842Z 07010KT 32/20 A2982 RMK A01 T03230195  RH  047%=      5-min Rain = 0
KCO1 271843Z 07008KT 32/19 A2982 RMK A01 T03220193  RH  047%=      5-min Rain = 0
KCO1 271844Z 07009KT 32/20 A2982 RMK A01 T03230196  RH  047%=      5-min Rain = 0
KCO1 271845Z 08007KT 33/19 A2981 RMK A01 T03250194  RH  046%=      5-min Rain = 0
KCO1 271846Z 09011KT 33/19 A2982 RMK A01 T03260192  RH  045%=      5-min Rain = 0
KCO1 271847Z 09011KT 32/19 A2982 RMK A01 T03230190  RH  046%=      5-min Rain = 0
KCO1 271848Z 09011KT 32/19 A2982 RMK A01 T03200190  RH  046%=      5-min Rain = 0
KCO1 271849Z 09010KT 32/19 A2981 RMK A01 T03210189  RH  046%=      5-min Rain = 0
KCO1 271850Z 08009KT 32/19 A2982 RMK A01 T03230194  RH  047%=      5-min Rain = 0
KCO1 271851Z 10011KT 32/19 A2981 RMK A01 T03240194  RH  046%=      5-min Rain = 0
KCO1 271852Z 11011KT 33/19 A2981 RMK A01 T03250189  RH  045%=      5-min Rain = 0
KCO1 271853Z 09012KT 32/19 A2981 RMK A01 T03240194  RH  046%=      5-min Rain = 0
KCO1 271854Z 07009KT 33/20 A2981 RMK A01 T03250199  RH  047%=      5-min Rain = 0
KCO1 271855Z 08012KT 33/20 A2981 RMK A01 T03250199  RH  047%=      5-min Rain = 0
KCO1 271856Z 09011KT 32/20 A2981 RMK A01 T03230197  RH  047%=      5-min Rain = 0
KCO1 271857Z 09010KT 32/20 A2981 RMK A01 T03220195  RH  047%=      5-min Rain = 0
KCO1 271858Z 08012KT 32/19 A2981 RMK A01 T03200194  RH  047%=      5-min Rain = 0
KCO1 271859Z 08012KT 32/19 A2981 RMK A01 T03200192  RH  047%=      5-min Rain = 0
KCO1 271900Z 08010KT 32/19 A2981 RMK A01 T03200192  RH  047%=      5-min Rain = 0
KCO1 271901Z 08010KT 32/19 A298 RMK A01 T03200194  RH  047%=      5-min Rain = 0
KCO1 271902Z 08013KT 32/20 A298 RMK A01 T03210195  RH  047%=      5-min Rain = 0
KCO1 271903Z 08012KT 32/19 A298 RMK A01 T03210194  RH  047%=      5-min Rain = 0
KCO1 271904Z 08013KT 32/19 A298 RMK A01 T03200193  RH  047%=      5-min Rain = 0
KCO1 271905Z 08013KT 32/19 A298 RMK A01 T03200190  RH  046%=      5-min Rain = 0
KCO1 271906Z 09009KT 32/19 A298 RMK A01 T03180185  RH  045%=      5-min Rain = 0
KCO1 271907Z 08011G16KT 32/19 A298 RMK A01 T03180188  RH  046%=      5-min Rain = 0
KCO1 271908Z 08013KT 32/19 A298 RMK A01 T03210194  RH  047%=      5-min Rain = 0
KCO1 271909Z 08011KT 32/19 A298 RMK A01 T03220194  RH  047%=      5-min Rain = 0
KCO1 271910Z 07013G18KT 32/20 A298 RMK A01 T03200195  RH  048%=      5-min Rain = 0
KCO1 271911Z 08011KT 32/20 A298 RMK A01 T03210195  RH  047%=      5-min Rain = 0
KCO1 271912Z 09012KT 32/19 A298 RMK A01 T03240194  RH  046%=      5-min Rain = 0
KCO1 271913Z 07010KT 32/20 A298 RMK A01 T03230195  RH  047%=      5-min Rain = 0
KCO1 271914Z 08013KT 32/19 A298 RMK A01 T03240192  RH  046%=      5-min Rain = 0
KCO1 271915Z 08011KT 32/19 A298 RMK A01 T03230189  RH  045%=      5-min Rain = 0
KCO1 271916Z 08012KT 32/19 A2979 RMK A01 T03220192  RH  046%=      5-min Rain = 0
KCO1 271917Z 07012KT 32/19 A2979 RMK A01 T03230192  RH  046%=      5-min Rain = 0
KCO1 271918Z 07011KT 32/20 A2979 RMK A01 T03230195  RH  047%=      5-min Rain = 0
KCO1 271919Z 08012KT 32/19 A2979 RMK A01 T03240189  RH  045%=      5-min Rain = 0
KCO1 271920Z 09009KT 32/19 A2979 RMK A01 T03230186  RH  044%=      5-min Rain = 0
KCO1 271921Z 08010KT 32/19 A2979 RMK A01 T03220190  RH  046%=      5-min Rain = 0
KCO1 271922Z 09011KT 33/20 A2979 RMK A01 T03250197  RH  047%=      5-min Rain = 0
KCO1 271923Z 08013KT 33/19 A2979 RMK A01 T03280190  RH  044%=      5-min Rain = 0
KCO1 271924Z 07013KT 33/19 A2979 RMK A01 T03260187  RH  044%=      5-min Rain = 0
KCO1 271925Z 09010KT 32/19 A2979 RMK A01 T03240187  RH  044%=      5-min Rain = 0
KCO1 271926Z 09014KT 33/19 A2979 RMK A01 T03250194  RH  046%=      5-min Rain = 0
KCO1 271927Z 07012KT 33/19 A2979 RMK A01 T03260194  RH  046%=      5-min Rain = 0
KCO1 271928Z 07011KT 33/19 A2979 RMK A01 T03260191  RH  045%=      5-min Rain = 0
KCO1 271929Z 08012KT 33/19 A2979 RMK A01 T03250193  RH  046%=      5-min Rain = 0
KCO1 271930Z 07014KT 33/20 A2979 RMK A01 T03270195  RH  046%=      5-min Rain = 0
KCO1 271931Z 08013KT 33/20 A2979 RMK A01 T03280196  RH  046%=      5-min Rain = 0
KCO1 271932Z 08011KT 33/19 A2979 RMK A01 T03260193  RH  046%=      5-min Rain = 0
KCO1 271933Z 08013KT 33/19 A2978 RMK A01 T03260192  RH  045%=      5-min Rain = 0
KCO1 271934Z 10010KT 33/19 A2978 RMK A01 T03270192  RH  045%=      5-min Rain = 0
KCO1 271935Z 07012KT 33/20 A2978 RMK A01 T03280197  RH  046%=      5-min Rain = 0
KCO1 271936Z 08014G19KT 33/20 A2978 RMK A01 T03280197  RH  046%=      5-min Rain = 0
KCO1 271937Z 08014KT 33/19 A2978 RMK A01 T03280193  RH  045%=      5-min Rain = 0
KCO1 271938Z 09015KT 33/19 A2978 RMK A01 T03260192  RH  045%=      5-min Rain = 0
KCO1 271939Z 09012KT 33/19 A2978 RMK A01 T03250194  RH  046%=      5-min Rain = 0
KCO1 271940Z 08013KT 33/19 A2978 RMK A01 T03260194  RH  046%=      5-min Rain = 0
KCO1 271941Z 08013KT 33/19 A2978 RMK A01 T03270192  RH  045%=      5-min Rain = 0
KCO1 271942Z 09014KT 33/19 A2978 RMK A01 T03270194  RH  045%=      5-min Rain = 0
KCO1 271943Z 08012KT 33/19 A2978 RMK A01 T03270193  RH  045%=      5-min Rain = 0
KCO1 271944Z 08011KT 33/19 A2978 RMK A01 T03270193  RH  045%=      5-min Rain = 0
KCO1 271945Z 07012KT 33/19 A2977 RMK A01 T03290190  RH  044%=      5-min Rain = 0
KCO1 271946Z 08012KT 33/19 A2977 RMK A01 T03290194  RH  045%=      5-min Rain = 0
KCO1 271947Z 08015KT 33/20 A2977 RMK A01 T03290198  RH  046%=      5-min Rain = 0
KCO1 271948Z 07011KT 33/20 A2977 RMK A01 T03290197  RH  046%=      5-min Rain = 0
KCO1 271949Z 08014KT 33/20 A2977 RMK A01 T03300195  RH  045%=      5-min Rain = 0
KCO1 271950Z 08016KT 33/19 A2977 RMK A01 T03310191  RH  044%=      5-min Rain = 0
KCO1 271951Z 08013KT 33/19 A2977 RMK A01 T03310187  RH  043%=      5-min Rain = 0
KCO1 271952Z 07012KT 33/19 A2977 RMK A01 T03300192  RH  044%=      5-min Rain = 0
KCO1 271953Z 09013G18KT 33/19 A2977 RMK A01 T03300194  RH  045%=      5-min Rain = 0
KCO1 271954Z 10011KT 33/19 A2977 RMK A01 T03320192  RH  044%=      5-min Rain = 0
KCO1 271955Z 08010KT 33/19 A2977 RMK A01 T03330191  RH  043%=      5-min Rain = 0
KCO1 271956Z 08011G16KT 33/19 A2977 RMK A01 T03340193  RH  044%=      5-min Rain = 0
KCO1 271957Z 11011KT 33/19 A2977 RMK A01 T03340190  RH  043%=      5-min Rain = 0
KCO1 271958Z 10011KT 33/19 A2977 RMK A01 T03330191  RH  043%=      5-min Rain = 0
KCO1 271959Z 10007KT 33/19 A2977 RMK A01 T03330185  RH  042%=      5-min Rain = 0
KCO1 272000Z 08013G18KT 33/19 A2977 RMK A01 T03330185  RH  042%=      5-min Rain = 0
KCO1 272001Z 09011KT 33/19 A2977 RMK A01 T03340187  RH  042%=      5-min Rain = 0
KCO1 272002Z 08011KT 34/19 A2977 RMK A01 T03360191  RH  043%=      5-min Rain = 0
KCO1 272003Z 08013G18KT 34/20 A2977 RMK A01 T03360198  RH  044%=      5-min Rain = 0
KCO1 272004Z 06013KT 33/20 A2977 RMK A01 T03320197  RH  045%=      5-min Rain = 0
KCO1 272005Z 07013KT 33/20 A2977 RMK A01 T03300197  RH  046%=      5-min Rain = 0
KCO1 272006Z 08011KT 33/20 A2977 RMK A01 T03290198  RH  046%=      5-min Rain = 0
KCO1 272007Z 08015KT 33/20 A2977 RMK A01 T03300197  RH  046%=      5-min Rain = 0
KCO1 272008Z 09012KT 33/20 A2976 RMK A01 T03300196  RH  045%=      5-min Rain = 0
KCO1 272009Z 09011KT 33/20 A2976 RMK A01 T03310195  RH  045%=      5-min Rain = 0
KCO1 272010Z 10011KT 33/19 A2976 RMK A01 T03340193  RH  043%=      5-min Rain = 0
KCO1 272011Z 08013KT 34/19 A2976 RMK A01 T03350193  RH  043%=      5-min Rain = 0
KCO1 272012Z 07014KT 34/19 A2976 RMK A01 T03350190  RH  042%=      5-min Rain = 0
KCO1 272013Z 09012KT 33/19 A2976 RMK A01 T03330187  RH  042%=      5-min Rain = 0
KCO1 272014Z 08013KT 33/19 A2976 RMK A01 T03320190  RH  043%=      5-min Rain = 0
KCO1 272015Z 08011KT 33/19 A2976 RMK A01 T03320191  RH  043%=      5-min Rain = 0
KCO1 272016Z 07015G20KT 33/19 A2976 RMK A01 T03340191  RH  043%=      5-min Rain = 0
KCO1 272017Z 07012KT 33/19 A2976 RMK A01 T03340191  RH  043%=      5-min Rain = 0
KCO1 272018Z 09010KT 34/19 A2976 RMK A01 T03360193  RH  043%=      5-min Rain = 0
KCO1 272019Z 10012KT 34/19 A2976 RMK A01 T03370190  RH  042%=      5-min Rain = 0
KCO1 272020Z 09011G16KT 34/19 A2976 RMK A01 T03360190  RH  042%=      5-min Rain = 0
KCO1 272021Z 07012KT 34/19 A2976 RMK A01 T03350189  RH  042%=      5-min Rain = 0
KCO1 272022Z 07011KT 33/19 A2976 RMK A01 T03340190  RH  043%=      5-min Rain = 0
KCO1 272023Z 08013KT 33/19 A2975 RMK A01 T03330190  RH  043%=      5-min Rain = 0
KCO1 272024Z 07014KT 33/19 A2975 RMK A01 T03320193  RH  044%=      5-min Rain = 0
KCO1 272025Z 08013KT 33/20 A2975 RMK A01 T03330195  RH  044%=      5-min Rain = 0
KCO1 272026Z 08016KT 33/19 A2975 RMK A01 T03330194  RH  044%=      5-min Rain = 0
KCO1 272027Z 09013KT 33/19 A2975 RMK A01 T03340194  RH  044%=      5-min Rain = 0
KCO1 272028Z 09016KT 33/19 A2975 RMK A01 T03340192  RH  043%=      5-min Rain = 0
KCO1 272029Z 08014KT 33/19 A2975 RMK A01 T03330192  RH  044%=      5-min Rain = 0
KCO1 272030Z 08016KT 33/19 A2975 RMK A01 T03330192  RH  043%=      5-min Rain = 0
KCO1 272031Z 08014KT 33/19 A2975 RMK A01 T03320190  RH  043%=      5-min Rain = 0
KCO1 272032Z 08013KT 33/19 A2975 RMK A01 T03310192  RH  044%=      5-min Rain = 0
KCO1 272033Z 08012G17KT 33/19 A2975 RMK A01 T03300193  RH  044%=      5-min Rain = 0
KCO1 272034Z 07012KT 33/19 A2975 RMK A01 T03340194  RH  044%=      5-min Rain = 0
KCO1 272035Z 08017KT 34/19 A2975 RMK A01 T03360193  RH  043%=      5-min Rain = 0
KCO1 272036Z 08013G18KT 34/19 A2975 RMK A01 T03350194  RH  043%=      5-min Rain = 0
KCO1 272037Z 09016KT 34/19 A2975 RMK A01 T03350193  RH  043%=      5-min Rain = 0
KCO1 272038Z 08016KT 34/19 A2975 RMK A01 T03350192  RH  043%=      5-min Rain = 0
KCO1 272039Z 08016KT 33/19 A2975 RMK A01 T03340191  RH  043%=      5-min Rain = 0
KCO1 272040Z 08011KT 33/19 A2974 RMK A01 T03330191  RH  043%=      5-min Rain = 0
KCO1 272041Z 07013KT 33/19 A2974 RMK A01 T03340191  RH  043%=      5-min Rain = 0
KCO1 272042Z 08014G19KT 34/19 A2974 RMK A01 T03350192  RH  043%=      5-min Rain = 0
KCO1 272043Z 07014KT 33/19 A2974 RMK A01 T03340191  RH  043%=      5-min Rain = 0
KCO1 272044Z 07014KT 34/19 A2974 RMK A01 T03370193  RH  043%=      5-min Rain = 0
KCO1 272045Z 08015KT 34/19 A2974 RMK A01 T03370193  RH  043%=      5-min Rain = 0
KCO1 272046Z 08015KT 34/19 A2974 RMK A01 T03370193  RH  043%=      5-min Rain = 0
KCO1 272047Z 08012G17KT 34/19 A2974 RMK A01 T03350191  RH  043%=      5-min Rain = 0
KCO1 272048Z 08014KT 34/19 A2974 RMK A01 T03350190  RH  042%=      5-min Rain = 0
KCO1 272049Z 09016KT 34/19 A2974 RMK A01 T03380192  RH  042%=      5-min Rain = 0
KCO1 272050Z 09014KT 34/19 A2974 RMK A01 T03370193  RH  043%=      5-min Rain = 0
KCO1 272051Z 09015G21KT 34/19 A2973 RMK A01 T03380191  RH  042%=      5-min Rain = 0
KCO1 272052Z 09012KT 34/19 A2973 RMK A01 T03380194  RH  043%=      5-min Rain = 0
KCO1 272053Z 08013KT 34/19 A2973 RMK A01 T03410193  RH  042%=      5-min Rain = 0
KCO1 272054Z 08013KT 34/19 A2973 RMK A01 T03430192  RH  041%=      5-min Rain = 0
KCO1 272055Z 07014G20KT 34/19 A2973 RMK A01 T03420192  RH  041%=      5-min Rain = 0
KCO1 272056Z 07018KT 34/19 A2973 RMK A01 T03410194  RH  042%=      5-min Rain = 0
KCO1 272057Z 08018KT 34/19 A2973 RMK A01 T03400193  RH  042%=      5-min Rain = 0
KCO1 272058Z 08017KT 34/19 A2973 RMK A01 T03380190  RH  042%=      5-min Rain = 0
KCO1 272059Z 07016KT 34/19 A2973 RMK A01 T03370191  RH  042%=      5-min Rain = 0
KCO1 272100Z 07017KT 34/19 A2973 RMK A01 T03400189  RH  041%=      5-min Rain = 0
KCO1 272101Z 07016KT 34/19 A2973 RMK A01 T03410186  RH  040%=      5-min Rain = 0
KCO1 272102Z 07015KT 34/19 A2973 RMK A01 T03400185  RH  040%=      5-min Rain = 0
KCO1 272103Z 08013KT 34/19 A2972 RMK A01 T03400186  RH  040%=      5-min Rain = 0
KCO1 272104Z 09015KT 34/19 A2972 RMK A01 T03420187  RH  040%=      5-min Rain = 0
KCO1 272105Z 09013KT 34/19 A2972 RMK A01 T03430188  RH  040%=      5-min Rain = 0
KCO1 272106Z 08014KT 34/19 A2972 RMK A01 T03440188  RH  040%=      5-min Rain = 0
KCO1 272107Z 08014KT 35/19 A2972 RMK A01 T03450186  RH  039%=      5-min Rain = 0
KCO1 272108Z 08014KT 34/19 A2972 RMK A01 T03420187  RH  040%=      5-min Rain = 0
KCO1 272109Z 08013KT 34/19 A2972 RMK A01 T03420189  RH  041%=      5-min Rain = 0
KCO1 272110Z 08016KT 34/19 A2972 RMK A01 T03430188  RH  040%=      5-min Rain = 0
KCO1 272111Z 08016KT 34/19 A2972 RMK A01 T03430190  RH  041%=      5-min Rain = 0
KCO1 272112Z 09015KT 34/19 A2972 RMK A01 T03440190  RH  040%=      5-min Rain = 0
KCO1 272113Z 07015G20KT 34/19 A2972 RMK A01 T03440190  RH  040%=      5-min Rain = 0
KCO1 272114Z 09017KT 34/19 A2972 RMK A01 T03440188  RH  040%=      5-min Rain = 0
KCO1 272115Z 09016G22KT 34/19 A2972 RMK A01 T03420187  RH  040%=      5-min Rain = 0
KCO1 272116Z 07015G20KT 34/19 A2971 RMK A01 T03400190  RH  041%=      5-min Rain = 0
KCO1 272117Z 08016KT 34/19 A2971 RMK A01 T03420192  RH  041%=      5-min Rain = 0
KCO1 272118Z 07014KT 35/19 A2971 RMK A01 T03460192  RH  040%=      5-min Rain = 0
KCO1 272119Z 07015G21KT 35/19 A2971 RMK A01 T03460190  RH  040%=      5-min Rain = 0
KCO1 272120Z 08017KT 35/19 A2971 RMK A01 T03450189  RH  040%=      5-min Rain = 0
KCO1 272121Z 07018KT 35/19 A2971 RMK A01 T03450189  RH  040%=      5-min Rain = 0
KCO1 272122Z 07015KT 34/19 A2971 RMK A01 T03440189  RH  040%=      5-min Rain = 0
KCO1 272123Z 07016KT 34/19 A2971 RMK A01 T03440187  RH  040%=      5-min Rain = 0
KCO1 272124Z 08015KT 34/19 A2971 RMK A01 T03440187  RH  040%=      5-min Rain = 0
KCO1 272125Z 08017KT 34/19 A2971 RMK A01 T03440187  RH  040%=      5-min Rain = 0
KCO1 272126Z 07016KT 34/18 A2971 RMK A01 T03440184  RH  039%=      5-min Rain = 0
KCO1 272127Z 07016G21KT 35/18 A2971 RMK A01 T03460183  RH  038%=      5-min Rain = 0
KCO1 272128Z 08017KT 35/18 A2971 RMK A01 T03470177  RH  037%=      5-min Rain = 0
KCO1 272129Z 09017KT 35/18 A2971 RMK A01 T03460181  RH  038%=      5-min Rain = 0
KCO1 272130Z 09016KT 35/18 A2971 RMK A01 T03450183  RH  038%=      5-min Rain = 0
KCO1 272131Z 08016KT 34/19 A2971 RMK A01 T03430185  RH  039%=      5-min Rain = 0
KCO1 272132Z 08017KT 34/19 A2971 RMK A01 T03440186  RH  039%=      5-min Rain = 0
KCO1 272133Z 08014KT 35/19 A2971 RMK A01 T03450188  RH  040%=      5-min Rain = 0
KCO1 272134Z 08015G21KT 35/19 A297 RMK A01 T03470188  RH  039%=      5-min Rain = 0
KCO1 272135Z 08015KT 35/19 A297 RMK A01 T03470189  RH  039%=      5-min Rain = 0
KCO1 272136Z 07018KT 35/19 A297 RMK A01 T03460185  RH  039%=      5-min Rain = 0
KCO1 272137Z 07015KT 35/18 A297 RMK A01 T03450183  RH  038%=      5-min Rain = 0
KCO1 272138Z 08017KT 35/18 A297 RMK A01 T03450182  RH  038%=      5-min Rain = 0
KCO1 272139Z 07015G20KT 35/18 A297 RMK A01 T03450183  RH  038%=      5-min Rain = 0
KCO1 272140Z 08014G20KT 35/19 A2969 RMK A01 T03470186  RH  039%=      5-min Rain = 0
KCO1 272141Z 07018KT 35/19 A2969 RMK A01 T03480186  RH  039%=      5-min Rain = 0
KCO1 272142Z 07017KT 35/19 A2969 RMK A01 T03460188  RH  039%=      5-min Rain = 0
KCO1 272143Z 07016KT 35/19 A2969 RMK A01 T03460188  RH  039%=      5-min Rain = 0
KCO1 272144Z 07018KT 35/19 A2969 RMK A01 T03470188  RH  039%=      5-min Rain = 0
KCO1 272145Z 07016G21KT 35/19 A2969 RMK A01 T03460188  RH  039%=      5-min Rain = 0
KCO1 272146Z 07018KT 35/19 A2969 RMK A01 T03460187  RH  039%=      5-min Rain = 0
KCO1 272147Z 08020KT 35/19 A2969 RMK A01 T03460186  RH  039%=      5-min Rain = 0
KCO1 272148Z 08020KT 34/19 A2969 RMK A01 T03440185  RH  039%=      5-min Rain = 0
KCO1 272149Z 08020KT 34/18 A2969 RMK A01 T03430184  RH  039%=      5-min Rain = 0
KCO1 272150Z 08018KT 34/18 A2969 RMK A01 T03430182  RH  039%=      5-min Rain = 0
KCO1 272151Z 07018KT 34/18 A2969 RMK A01 T03440183  RH  039%=      5-min Rain = 0
KCO1 272152Z 08020KT 35/18 A2969 RMK A01 T03450183  RH  038%=      5-min Rain = 0
KCO1 272153Z 08016KT 35/18 A2969 RMK A01 T03460180  RH  038%=      5-min Rain = 0
KCO1 272154Z 06015G21KT 35/18 A2969 RMK A01 T03460184  RH  038%=      5-min Rain = 0
KCO1 272155Z 07016G22KT 35/19 A2969 RMK A01 T03480188  RH  039%=      5-min Rain = 0
KCO1 272156Z 07015G20KT 35/19 A2969 RMK A01 T03490188  RH  039%=      5-min Rain = 0
KCO1 272157Z 07018KT 35/18 A2969 RMK A01 T03490184  RH  038%=      5-min Rain = 0
KCO1 272158Z 07016G23KT 35/18 A2969 RMK A01 T03460183  RH  038%=      5-min Rain = 0
KCO1 272159Z 07017KT 35/18 A2969 RMK A01 T03460179  RH  037%=      5-min Rain = 0
KCO1 272200Z 07019KT 35/18 A2969 RMK A01 T03450177  RH  037%=      5-min Rain = 0
KCO1 272201Z 07015KT 35/18 A2968 RMK A01 T03450178  RH  037%=      5-min Rain = 0
KCO1 272202Z 07017G22KT 35/18 A2969 RMK A01 T03470180  RH  037%=      5-min Rain = 0
KCO1 272203Z 07015G22KT 35/18 A2968 RMK A01 T03470183  RH  038%=      5-min Rain = 0
KCO1 272204Z 07018KT 35/19 A2968 RMK A01 T03460185  RH  038%=      5-min Rain = 0
KCO1 272205Z 07018KT 35/18 A2968 RMK A01 T03470182  RH  038%=      5-min Rain = 0
KCO1 272206Z 07016G21KT 35/18 A2968 RMK A01 T03460176  RH  037%=      5-min Rain = 0
KCO1 272207Z 06015KT 35/17 A2967 RMK A01 T03470170  RH  035%=      5-min Rain = 0
KCO1 272208Z 05016KT 35/16 A2967 RMK A01 T03500164  RH  033%=      5-min Rain = 0
KCO1 272209Z 06013KT 35/15 A2967 RMK A01 T03530149  RH  030%=      5-min Rain = 0
KCO1 272210Z 05010KT 36/14 A2967 RMK A01 T03560138  RH  027%=      5-min Rain = 0
KCO1 272211Z 07009KT 36/13 A2967 RMK A01 T03570134  RH  026%=      5-min Rain = 0
KCO1 272212Z 06008KT 36/14 A2967 RMK A01 T03570142  RH  028%=      5-min Rain = 0
KCO1 272213Z 06009KT 36/14 A2967 RMK A01 T03580139  RH  027%=      5-min Rain = 0
KCO1 272214Z 05008KT 36/14 A2967 RMK A01 T03580142  RH  027%=      5-min Rain = 0
KCO1 272215Z 08010G15KT 36/13 A2967 RMK A01 T03580134  RH  026%=      5-min Rain = 0
KCO1 272216Z 06012KT 36/12 A2967 RMK A01 T03610116  RH  023%=      5-min Rain = 0
KCO1 272217Z 06011KT 36/13 A2967 RMK A01 T03640126  RH  024%=      5-min Rain = 0
KCO1 272218Z 06011KT 37/13 A2967 RMK A01 T03650131  RH  025%=      5-min Rain = 0
KCO1 272219Z 07013KT 36/14 A2967 RMK A01 T03640140  RH  026%=      5-min Rain = 0
KCO1 272220Z 07013KT 36/15 A2967 RMK A01 T03640148  RH  028%=      5-min Rain = 0
KCO1 272221Z 10014KT 36/12 A2967 RMK A01 T03640117  RH  023%=      5-min Rain = 0
KCO1 272222Z 09006KT 37/10 A2967 RMK A01 T03660095  RH  019%=      5-min Rain = 0
KCO1 272223Z 09005KT 37/09 A2967 RMK A01 T03690091  RH  019%=      5-min Rain = 0
KCO1 272224Z 08003KT 37/08 A2967 RMK A01 T03700083  RH  017%=      5-min Rain = 0
KCO1 272225Z 07004KT 37/09 A2966 RMK A01 T03690089  RH  018%=      5-min Rain = 0
KCO1 272226Z 03009G15KT 37/10 A2966 RMK A01 T03710100  RH  019%=      5-min Rain = 0
KCO1 272227Z 08014G19KT 37/10 A2965 RMK A01 T03720095  RH  019%=      5-min Rain = 0
KCO1 272228Z 09007KT 37/09 A2966 RMK A01 T03730087  RH  018%=      5-min Rain = 0
KCO1 272229Z 16008KT 37/09 A2966 RMK A01 T03730091  RH  018%=      5-min Rain = 0
KCO1 272230Z 16006KT 37/10 A2966 RMK A01 T03730095  RH  019%=      5-min Rain = 0
KCO1 272231Z 18005KT 37/09 A2966 RMK A01 T03730088  RH  018%=      5-min Rain = 0
KCO1 272232Z 21012KT 37/02 A2966 RMK A01 T03730024  RH  012%=      5-min Rain = 0
KCO1 272233Z 21014KT 38/M01 A2966 RMK A01 T03781014  RH  008%=      5-min Rain = 0
KCO1 272234Z 21015KT 38/M02 A2966 RMK A01 T03831015  RH  008%=      5-min Rain = 0
KCO1 272235Z 22016G23KT 39/M03 A2966 RMK A01 T03861031  RH  007%=      5-min Rain = 0
KCO1 272236Z 22018KT 39/M03 A2966 RMK A01 T03861034  RH  007%=      5-min Rain = 0
KCO1 272237Z 19017G23KT 39/M03 A2966 RMK A01 T03851032  RH  007%=      5-min Rain = 0
KCO1 272238Z 20018KT 39/M03 A2966 RMK A01 T03851032  RH  007%=      5-min Rain = 0
KCO1 272239Z 20017G22KT 39/M04 A2965 RMK A01 T03861042  RH  007%=      5-min Rain = 0
KCO1 272240Z 19013KT 38/M03 A2965 RMK A01 T03841032  RH  007%=      5-min Rain = 0
KCO1 272241Z 18013KT 38/M04 A2965 RMK A01 T03841035  RH  007%=      5-min Rain = 0
KCO1 272242Z 21013KT 39/M03 A2965 RMK A01 T03851033  RH  007%=      5-min Rain = 0
KCO1 272243Z 21014KT 39/M04 A2965 RMK A01 T03861043  RH  007%=      5-min Rain = 0
KCO1 272244Z 20013KT 39/M04 A2965 RMK A01 T03851044  RH  006%=      5-min Rain = 0
KCO1 272245Z 20012KT 39/M04 A2965 RMK A01 T03851043  RH  007%=      5-min Rain = 0
KCO1 272246Z 21014KT 39/M04 A2965 RMK A01 T03851037  RH  007%=      5-min Rain = 0
KCO1 272247Z 22013KT 39/M04 A2965 RMK A01 T03861037  RH  007%=      5-min Rain = 0
KCO1 272248Z 21011KT 39/M04 A2965 RMK A01 T03871035  RH  007%=      5-min Rain = 0
KCO1 272249Z 21016KT 39/M03 A2965 RMK A01 T03871031  RH  007%=      5-min Rain = 0
KCO1 272250Z 20018KT 39/M03 A2965 RMK A01 T03881031  RH  007%=      5-min Rain = 0
KCO1 272251Z 20019G24KT 39/M03 A2965 RMK A01 T03881034  RH  007%=      5-min Rain = 0
KCO1 272252Z 19020KT 39/M03 A2965 RMK A01 T03871034  RH  007%=      5-min Rain = 0
KCO1 272253Z 20016KT 39/M04 A2965 RMK A01 T03861041  RH  007%=      5-min Rain = 0
KCO1 272254Z 19016KT 38/M04 A2965 RMK A01 T03841043  RH  007%=      5-min Rain = 0
KCO1 272255Z 20013G18KT 38/M04 A2965 RMK A01 T03841035  RH  007%=      5-min Rain = 0
KCO1 272256Z 19017G25KT 39/M03 A2965 RMK A01 T03851034  RH  007%=      5-min Rain = 0
KCO1 272257Z 21015G20KT 39/M03 A2965 RMK A01 T03861033  RH  007%=      5-min Rain = 0
KCO1 272258Z 21015G20KT 39/M03 A2965 RMK A01 T03871032  RH  007%=      5-min Rain = 0
KCO1 272259Z 21013KT 39/M04 A2965 RMK A01 T03881036  RH  007%=      5-min Rain = 0
KCO1 272300Z 21014KT 39/M03 A2965 RMK A01 T03881034  RH  007%=      5-min Rain = 0
KCO1 272301Z 21014KT 39/M04 A2965 RMK A01 T03881035  RH  007%=      5-min Rain = 0
KCO1 272302Z 20017KT 39/M04 A2965 RMK A01 T03871042  RH  007%=      5-min Rain = 0
KCO1 272303Z 20014KT 39/M04 A2965 RMK A01 T03851039  RH  007%=      5-min Rain = 0
KCO1 272304Z 20014G20KT 39/M03 A2965 RMK A01 T03851034  RH  007%=      5-min Rain = 0
KCO1 272305Z 22017KT 39/M04 A2965 RMK A01 T03861035  RH  007%=      5-min Rain = 0
KCO1 272306Z 22023KT 39/M04 A2965 RMK A01 T03861040  RH  007%=      5-min Rain = 0
KCO1 272307Z 22017KT 39/M04 A2965 RMK A01 T03851037  RH  007%=      5-min Rain = 0
KCO1 272308Z 21017G22KT 39/M03 A2965 RMK A01 T03861034  RH  007%=      5-min Rain = 0
KCO1 272309Z 21020KT 39/M04 A2965 RMK A01 T03861035  RH  007%=      5-min Rain = 0
KCO1 272310Z 21021G27KT 39/M04 A2964 RMK A01 T03861038  RH  007%=      5-min Rain = 0
KCO1 272311Z 22021KT 39/M04 A2965 RMK A01 T03851043  RH  007%=      5-min Rain = 0
KCO1 272312Z 21018KT 38/M04 A2965 RMK A01 T03841040  RH  007%=      5-min Rain = 0
KCO1 272313Z 22018KT 38/M04 A2965 RMK A01 T03841037  RH  007%=      5-min Rain = 0
KCO1 272314Z 23016KT 38/M04 A2965 RMK A01 T03841037  RH  007%=      5-min Rain = 0
KCO1 272315Z 23013KT 38/M03 A2965 RMK A01 T03841032  RH  007%=      5-min Rain = 0
KCO1 272316Z 22013KT 38/M03 A2965 RMK A01 T03841030  RH  007%=      5-min Rain = 0
KCO1 272317Z 23020KT 38/M04 A2964 RMK A01 T03841035  RH  007%=      5-min Rain = 0
KCO1 272318Z 23018KT 38/M04 A2965 RMK A01 T03831041  RH  007%=      5-min Rain = 0
KCO1 272319Z 23014G19KT 38/M04 A2965 RMK A01 T03821037  RH  007%=      5-min Rain = 0
KCO1 272320Z 24015KT 38/M03 A2965 RMK A01 T03821031  RH  007%=      5-min Rain = 0
KCO1 272321Z 23014KT 38/M04 A2965 RMK A01 T03831036  RH  007%=      5-min Rain = 0
KCO1 272322Z 23014KT 38/M04 A2965 RMK A01 T03831037  RH  007%=      5-min Rain = 0
KCO1 272323Z 23016KT 38/M04 A2965 RMK A01 T03821039  RH  007%=      5-min Rain = 0
KCO1 272324Z 24013G18KT 38/M04 A2965 RMK A01 T03821037  RH  007%=      5-min Rain = 0
KCO1 272325Z 23014KT 38/M03 A2964 RMK A01 T03831034  RH  007%=      5-min Rain = 0
KCO1 272326Z 22014KT 38/M04 A2964 RMK A01 T03831038  RH  007%=      5-min Rain = 0
KCO1 272327Z 22014KT 38/M03 A2964 RMK A01 T03821033  RH  007%=      5-min Rain = 0
KCO1 272328Z 23014KT 38/M02 A2964 RMK A01 T03831022  RH  008%=      5-min Rain = 0
KCO1 272329Z 23016KT 38/M02 A2964 RMK A01 T03841024  RH  008%=      5-min Rain = 0
KCO1 272330Z 23017KT 38/M03 A2964 RMK A01 T03831027  RH  007%=      5-min Rain = 0
KCO1 272331Z 22019G25KT 38/M03 A2964 RMK A01 T03831029  RH  007%=      5-min Rain = 0
KCO1 272332Z 22017KT 38/M03 A2964 RMK A01 T03821033  RH  007%=      5-min Rain = 0
KCO1 272333Z 22015KT 38/M03 A2964 RMK A01 T03821032  RH  007%=      5-min Rain = 0
KCO1 272334Z 22015KT 38/M03 A2964 RMK A01 T03821032  RH  007%=      5-min Rain = 0
KCO1 272335Z 24013KT 38/00 A2964 RMK A01 T03820003  RH  009%=      5-min Rain = 0
KCO1 272336Z 23010KT 38/04 A2965 RMK A01 T03820040  RH  012%=      5-min Rain = 0
KCO1 272337Z 22011KT 38/M02 A2964 RMK A01 T03801022  RH  008%=      5-min Rain = 0
KCO1 272338Z 23010KT 38/M02 A2964 RMK A01 T03801016  RH  008%=      5-min Rain = 0
KCO1 272339Z 25011KT 38/04 A2965 RMK A01 T03810043  RH  013%=      5-min Rain = 0
KCO1 272340Z 24011KT 38/06 A2965 RMK A01 T03810059  RH  014%=      5-min Rain = 0
KCO1 272341Z 24009KT 38/06 A2965 RMK A01 T03790057  RH  014%=      5-min Rain = 0
KCO1 272342Z 24006KT 38/04 A2964 RMK A01 T03780040  RH  012%=      5-min Rain = 0
KCO1 272343Z 24008KT 38/02 A2964 RMK A01 T03790016  RH  010%=      5-min Rain = 0
KCO1 272344Z 24007KT 38/01 A2964 RMK A01 T03810013  RH  010%=      5-min Rain = 0
KCO1 272345Z 23009KT 38/01 A2964 RMK A01 T03810014  RH  010%=      5-min Rain = 0
KCO1 272346Z 24012KT 38/02 A2964 RMK A01 T03810020  RH  011%=      5-min Rain = 0
KCO1 272347Z 26008KT 38/02 A2964 RMK A01 T03810016  RH  010%=      5-min Rain = 0
KCO1 272348Z 26011KT 38/01 A2964 RMK A01 T03800007  RH  010%=      5-min Rain = 0
KCO1 272349Z 25011KT 38/M00 A2964 RMK A01 T03801003  RH  009%=      5-min Rain = 0
KCO1 272350Z 23008KT 38/01 A2964 RMK A01 T03790006  RH  010%=      5-min Rain = 0
KCO1 272351Z 25009KT 38/01 A2964 RMK A01 T03790013  RH  010%=      5-min Rain = 0
KCO1 272352Z 26011KT 38/01 A2964 RMK A01 T03790007  RH  010%=      5-min Rain = 0
KCO1 272353Z 25011KT 38/01 A2964 RMK A01 T03790005  RH  010%=      5-min Rain = 0
KCO1 272354Z 22007KT 38/00 A2964 RMK A01 T03780001  RH  009%=      5-min Rain = 0
KCO1 272355Z 22004KT 38/01 A2964 RMK A01 T03780005  RH  010%=      5-min Rain = 0
KCO1 272356Z 20005G10KT 38/01 A2964 RMK A01 T03780009  RH  010%=      5-min Rain = 0
KCO1 272357Z 22009KT 38/01 A2964 RMK A01 T03790005  RH  010%=      5-min Rain = 0
KCO1 272358Z 23008KT 38/01 A2964 RMK A01 T03790012  RH  010%=      5-min Rain = 0
KCO1 272359Z 21006KT 38/01 A2964 RMK A01 T03790013  RH  010%=      5-min Rain = 0
KCO1 280000Z 24008KT 38/02 A2964 RMK A01 T03790022  RH  011%=      5-min Rain = 0
KCO1 280001Z 24012KT 38/03 A2964 RMK A01 T03780031  RH  012%=      5-min Rain = 0
KCO1 280002Z 26014KT 38/03 A2964 RMK A01 T03770034  RH  012%=      5-min Rain = 0
KCO1 280003Z 25006G11KT 38/03 A2964 RMK A01 T03760030  RH  012%=      5-min Rain = 0
KCO1 280004Z 27005KT 38/03 A2964 RMK A01 T03750034  RH  012%=      5-min Rain = 0
KCO1 280005Z 28003KT 38/03 A2964 RMK A01 T03750030  RH  012%=      5-min Rain = 0
KCO1 280006Z 28006KT 38/03 A2964 RMK A01 T03760031  RH  012%=      5-min Rain = 0
KCO1 280007Z 27008KT 38/03 A2964 RMK A01 T03760030  RH  012%=      5-min Rain = 0
KCO1 280008Z 22009KT 38/02 A2964 RMK A01 T03760024  RH  011%=      5-min Rain = 0
KCO1 280009Z 24008G13KT 38/02 A2964 RMK A01 T03760017  RH  011%=      5-min Rain = 0
KCO1 280010Z 22007KT 38/01 A2964 RMK A01 T03760012  RH  010%=      5-min Rain = 0
KCO1 280011Z 20009KT 38/01 A2964 RMK A01 T03770006  RH  010%=      5-min Rain = 0
KCO1 280012Z 20009KT 38/M01 A2964 RMK A01 T03771012  RH  009%=      5-min Rain = 0
KCO1 280013Z 20008KT 38/M02 A2964 RMK A01 T03781015  RH  008%=      5-min Rain = 0
KCO1 280014Z 19007KT 38/M02 A2964 RMK A01 T03781023  RH  008%=      5-min Rain = 0
KCO1 280015Z 19008KT 38/M02 A2964 RMK A01 T03781016  RH  008%=      5-min Rain = 0
KCO1 280016Z 17009G14KT 38/M02 A2964 RMK A01 T03781024  RH  008%=      5-min Rain = 0
KCO1 280017Z 18010KT 38/M03 A2965 RMK A01 T03781027  RH  008%=      5-min Rain = 0
KCO1 280018Z 18016G22KT 38/04 A2965 RMK A01 T03780039  RH  013%=      5-min Rain = 0
KCO1 280019Z 19017KT 37/14 A2965 RMK A01 T03690139  RH  025%=      5-min Rain = 0
KCO1 280020Z 19016KT 36/15 A2965 RMK A01 T03590148  RH  028%=      5-min Rain = 0
KCO1 280021Z 18014KT 35/15 A2965 RMK A01 T03540152  RH  030%=      5-min Rain = 0
KCO1 280022Z 18013KT 35/15 A2965 RMK A01 T03510152  RH  030%=      5-min Rain = 0
KCO1 280023Z 17014KT 35/15 A2965 RMK A01 T03500153  RH  031%=      5-min Rain = 0
KCO1 280024Z 16012KT 35/15 A2965 RMK A01 T03500152  RH  031%=      5-min Rain = 0
KCO1 280025Z 17012KT 35/15 A2965 RMK A01 T03500152  RH  031%=      5-min Rain = 0
KCO1 280026Z 17010KT 35/15 A2965 RMK A01 T03500153  RH  031%=      5-min Rain = 0
KCO1 280027Z 16014G20KT 35/15 A2964 RMK A01 T03490152  RH  031%=      5-min Rain = 0
KCO1 280028Z 16018KT 35/15 A2964 RMK A01 T03480151  RH  031%=      5-min Rain = 0
KCO1 280029Z 15016G21KT 35/15 A2964 RMK A01 T03470151  RH  031%=      5-min Rain = 0
KCO1 280030Z 16017KT 35/15 A2964 RMK A01 T03470151  RH  031%=      5-min Rain = 0
KCO1 280031Z 16019KT 35/15 A2965 RMK A01 T03470151  RH  031%=      5-min Rain = 0
KCO1 280032Z 15016KT 35/15 A2964 RMK A01 T03460151  RH  031%=      5-min Rain = 0
KCO1 280033Z 14014KT 35/15 A2965 RMK A01 T03460152  RH  031%=      5-min Rain = 0
KCO1 280034Z 14016G22KT 35/16 A2965 RMK A01 T03460159  RH  033%=      5-min Rain = 0
KCO1 280035Z 14021KT 35/16 A2964 RMK A01 T03450162  RH  034%=      5-min Rain = 0
KCO1 280036Z 14018KT 34/16 A2965 RMK A01 T03420162  RH  034%=      5-min Rain = 0
KCO1 280037Z 14019G24KT 34/16 A2964 RMK A01 T03410162  RH  035%=      5-min Rain = 0
KCO1 280038Z 14020KT 34/16 A2964 RMK A01 T03390163  RH  035%=      5-min Rain = 0
KCO1 280039Z 14022KT 34/16 A2964 RMK A01 T03380163  RH  035%=      5-min Rain = 0
KCO1 280040Z 15019KT 34/16 A2964 RMK A01 T03380162  RH  035%=      5-min Rain = 0
KCO1 280041Z 15020KT 34/16 A2964 RMK A01 T03380162  RH  035%=      5-min Rain = 0
KCO1 280042Z 15018G23KT 34/16 A2964 RMK A01 T03380160  RH  035%=      5-min Rain = 0
KCO1 280043Z 14017G24KT 34/16 A2964 RMK A01 T03380161  RH  035%=      5-min Rain = 0
KCO1 280044Z 14018G23KT 34/16 A2964 RMK A01 T03370161  RH  035%=      5-min Rain = 0
KCO1 280045Z 14021G26KT 34/16 A2964 RMK A01 T03360161  RH  035%=      5-min Rain = 0
KCO1 280046Z 14021KT 34/16 A2964 RMK A01 T03360162  RH  035%=      5-min Rain = 0
KCO1 280047Z 15018G24KT 34/16 A2964 RMK A01 T03350162  RH  036%=      5-min Rain = 0
KCO1 280048Z 15018KT 34/16 A2964 RMK A01 T03350163  RH  036%=      5-min Rain = 0
KCO1 280049Z 16019KT 34/16 A2964 RMK A01 T03350163  RH  036%=      5-min Rain = 0
KCO1 280050Z 15017KT 34/16 A2964 RMK A01 T03350163  RH  036%=      5-min Rain = 0
KCO1 280051Z 15016KT 33/16 A2964 RMK A01 T03340163  RH  036%=      5-min Rain = 0
KCO1 280052Z 15013KT 33/16 A2964 RMK A01 T03340163  RH  036%=      5-min Rain = 0
KCO1 280053Z 15015KT 33/17 A2965 RMK A01 T03340165  RH  036%=      5-min Rain = 0
KCO1 280054Z 15018KT 33/16 A2965 RMK A01 T03340164  RH  036%=      5-min Rain = 0
KCO1 280055Z 14015KT 33/17 A2965 RMK A01 T03330165  RH  037%=      5-min Rain = 0
KCO1 280056Z 14017G23KT 33/17 A2965 RMK A01 T03330166  RH  037%=      5-min Rain = 0
KCO1 280057Z 15017KT 33/17 A2964 RMK A01 T03320167  RH  037%=      5-min Rain = 0
KCO1 280058Z 15014KT 33/17 A2964 RMK A01 T03310168  RH  038%=      5-min Rain = 0
KCO1 280059Z 13015KT 33/17 A2965 RMK A01 T03300168  RH  038%=      5-min Rain = 0
KCO1 280100Z 13014G19KT 33/17 A2965 RMK A01 T03300169  RH  038%=      5-min Rain = 0
KCO1 280101Z 13017G23KT 33/17 A2965 RMK A01 T03290173  RH  039%=      5-min Rain = 0
KCO1 280102Z 13019KT 33/18 A2965 RMK A01 T03270177  RH  041%=      5-min Rain = 0
KCO1 280103Z 14018KT 32/18 A2964 RMK A01 T03240177  RH  042%=      5-min Rain = 0
KCO1 280104Z 14013KT 32/18 A2965 RMK A01 T03220178  RH  042%=      5-min Rain = 0
KCO1 280105Z 13014G24KT 32/18 A2965 RMK A01 T03220178  RH  042%=      5-min Rain = 0
KCO1 280106Z 14020KT 32/18 A2965 RMK A01 T03210178  RH  043%=      5-min Rain = 0
KCO1 280107Z 14018KT 32/18 A2965 RMK A01 T03200177  RH  043%=      5-min Rain = 0
KCO1 280108Z 13014G21KT 32/18 A2965 RMK A01 T03190177  RH  043%=      5-min Rain = 0
KCO1 280109Z 13016G21KT 32/18 A2965 RMK A01 T03190178  RH  043%=      5-min Rain = 0
KCO1 280110Z 13021KT 32/18 A2965 RMK A01 T03180178  RH  043%=      5-min Rain = 0
KCO1 280111Z 13019KT 32/18 A2965 RMK A01 T03170179  RH  044%=      5-min Rain = 0
KCO1 280112Z 13022G27KT 32/18 A2964 RMK A01 T03160179  RH  044%=      5-min Rain = 0
KCO1 280113Z 13022G27KT 32/18 A2964 RMK A01 T03160180  RH  044%=      5-min Rain = 0
KCO1 280114Z 14022G27KT 32/18 A2965 RMK A01 T03150180  RH  045%=      5-min Rain = 0
KCO1 280115Z 14022KT 32/18 A2965 RMK A01 T03150180  RH  045%=      5-min Rain = 0
KCO1 280116Z 14020KT 31/18 A2965 RMK A01 T03140180  RH  045%=      5-min Rain = 0
KCO1 280117Z 13018KT 31/18 A2965 RMK A01 T03140181  RH  045%=      5-min Rain = 0
KCO1 280118Z 13017G22KT 31/18 A2965 RMK A01 T03140181  RH  045%=      5-min Rain = 0
KCO1 280119Z 13020G26KT 31/18 A2965 RMK A01 T03130182  RH  046%=      5-min Rain = 0
KCO1 280120Z 13019G24KT 31/18 A2965 RMK A01 T03130183  RH  046%=      5-min Rain = 0
KCO1 280121Z 13022KT 31/18 A2965 RMK A01 T03120182  RH  046%=      5-min Rain = 0
KCO1 280122Z 14022G28KT 31/18 A2965 RMK A01 T03120182  RH  046%=      5-min Rain = 0
KCO1 280123Z 14019KT 31/18 A2965 RMK A01 T03110182  RH  046%=      5-min Rain = 0
KCO1 280124Z 14018KT 31/18 A2965 RMK A01 T03110183  RH  046%=      5-min Rain = 0
KCO1 280125Z 14018KT 31/18 A2965 RMK A01 T03110183  RH  046%=      5-min Rain = 0
KCO1 280126Z 14015G20KT 31/18 A2965 RMK A01 T03100183  RH  047%=      5-min Rain = 0
KCO1 280127Z 14019KT 31/18 A2965 RMK A01 T03100182  RH  047%=      5-min Rain = 0
KCO1 280128Z 14016KT 31/18 A2965 RMK A01 T03100183  RH  047%=      5-min Rain = 0
KCO1 280129Z 14013KT 31/18 A2965 RMK A01 T03090183  RH  047%=      5-min Rain = 0
KCO1 280130Z 14017G23KT 31/18 A2965 RMK A01 T03090183  RH  047%=      5-min Rain = 0
KCO1 280131Z 15018KT 31/18 A2965 RMK A01 T03080184  RH  047%=      5-min Rain = 0
KCO1 280132Z 15017KT 31/18 A2965 RMK A01 T03080184  RH  048%=      5-min Rain = 0
KCO1 280133Z 14018KT 31/18 A2965 RMK A01 T03070184  RH  048%=      5-min Rain = 0
KCO1 280134Z 14020KT 31/18 A2965 RMK A01 T03070183  RH  048%=      5-min Rain = 0
KCO1 280135Z 14019KT 31/18 A2965 RMK A01 T03060183  RH  048%=      5-min Rain = 0
KCO1 280136Z 14020KT 31/18 A2965 RMK A01 T03050182  RH  048%=      5-min Rain = 0
KCO1 280137Z 14022KT 30/18 A2965 RMK A01 T03040182  RH  048%=      5-min Rain = 0
KCO1 280138Z 14018G23KT 30/18 A2966 RMK A01 T03030183  RH  049%=      5-min Rain = 0
KCO1 280139Z 14021KT 30/18 A2965 RMK A01 T03030183  RH  049%=      5-min Rain = 0
KCO1 280140Z 14018G23KT 30/18 A2965 RMK A01 T03020184  RH  049%=      5-min Rain = 0
KCO1 280141Z 14017KT 30/18 A2965 RMK A01 T03020184  RH  049%=      5-min Rain = 0
KCO1 280142Z 14016KT 30/18 A2965 RMK A01 T03010184  RH  050%=      5-min Rain = 0
KCO1 280143Z 14018G23KT 30/19 A2966 RMK A01 T03000185  RH  050%=      5-min Rain = 0
KCO1 280144Z 14018G23KT 30/19 A2965 RMK A01 T03000185  RH  050%=      5-min Rain = 0
KCO1 280145Z 14020KT 30/19 A2966 RMK A01 T02990185  RH  050%=      5-min Rain = 0
KCO1 280146Z 14018G23KT 30/19 A2966 RMK A01 T03000186  RH  051%=      5-min Rain = 0
KCO1 280147Z 14019KT 30/19 A2966 RMK A01 T02990186  RH  051%=      5-min Rain = 0
KCO1 280148Z 14022KT 30/19 A2966 RMK A01 T02980185  RH  051%=      5-min Rain = 0
KCO1 280149Z 15020G28KT 30/18 A2966 RMK A01 T02980184  RH  051%=      5-min Rain = 0
KCO1 280150Z 15024KT 30/18 A2965 RMK A01 T02980184  RH  050%=      5-min Rain = 0
KCO1 280151Z 14020G25KT 30/18 A2965 RMK A01 T02970183  RH  050%=      5-min Rain = 0
KCO1 280152Z 14020G25KT 30/18 A2965 RMK A01 T02970183  RH  050%=      5-min Rain = 0
KCO1 280153Z 14018KT 30/18 A2966 RMK A01 T02970183  RH  050%=      5-min Rain = 0
KCO1 280154Z 15018KT 30/18 A2966 RMK A01 T02960183  RH  051%=      5-min Rain = 0
KCO1 280155Z 14017KT 30/18 A2966 RMK A01 T02950183  RH  051%=      5-min Rain = 0
KCO1 280156Z 14017KT 30/18 A2966 RMK A01 T02950183  RH  051%=      5-min Rain = 0
KCO1 280157Z 15019G24KT 29/18 A2965 RMK A01 T02940184  RH  051%=      5-min Rain = 0
KCO1 280158Z 14020G25KT 29/18 A2965 RMK A01 T02940184  RH  051%=      5-min Rain = 0
KCO1 280159Z 14017KT 29/18 A2966 RMK A01 T02940184  RH  052%=      5-min Rain = 0
KCO1 280200Z 14019KT 29/18 A2966 RMK A01 T02930184  RH  052%=      5-min Rain = 0
KCO1 280201Z 14017KT 29/18 A2966 RMK A01 T02930184  RH  052%=      5-min Rain = 0
KCO1 280202Z 14015KT 29/18 A2966 RMK A01 T02930184  RH  052%=      5-min Rain = 0
KCO1 280203Z 14019KT 29/19 A2965 RMK A01 T02920185  RH  052%=      5-min Rain = 0
KCO1 280204Z 14017G23KT 29/19 A2966 RMK A01 T02920185  RH  052%=      5-min Rain = 0
KCO1 280205Z 14019G24KT 29/19 A2966 RMK A01 T02910185  RH  053%=      5-min Rain = 0
KCO1 280206Z 15021KT 29/19 A2966 RMK A01 T02910185  RH  053%=      5-min Rain = 0
KCO1 280207Z 15020KT 29/19 A2966 RMK A01 T02910185  RH  053%=      5-min Rain = 0
KCO1 280208Z 15015KT 29/19 A2966 RMK A01 T02920186  RH  053%=      5-min Rain = 0
KCO1 280209Z 15019KT 29/19 A2966 RMK A01 T02910185  RH  053%=      5-min Rain = 0
KCO1 280210Z 14017G23KT 29/19 A2966 RMK A01 T02910185  RH  053%=      5-min Rain = 0
KCO1 280211Z 15017KT 29/19 A2966 RMK A01 T02900185  RH  053%=      5-min Rain = 0
KCO1 280212Z 14018KT 29/18 A2965 RMK A01 T02900184  RH  053%=      5-min Rain = 0
KCO1 280213Z 15016G21KT 29/19 A2966 RMK A01 T02900185  RH  053%=      5-min Rain = 0
KCO1 280214Z 15019G24KT 29/19 A2966 RMK A01 T02900185  RH  053%=      5-min Rain = 0
KCO1 280215Z 15019G24KT 29/18 A2966 RMK A01 T02890184  RH  053%=      5-min Rain = 0
KCO1 280216Z 14019KT 29/18 A2966 RMK A01 T02890184  RH  053%=      5-min Rain = 0
KCO1 280217Z 14020G25KT 29/18 A2966 RMK A01 T02890183  RH  053%=      5-min Rain = 0
KCO1 280218Z 15022G27KT 29/18 A2966 RMK A01 T02890183  RH  053%=      5-min Rain = 0
KCO1 280219Z 15021G30KT 29/18 A2966 RMK A01 T02890183  RH  053%=      5-min Rain = 0
KCO1 280220Z 15025G30KT 29/18 A2966 RMK A01 T02890183  RH  053%=      5-min Rain = 0
KCO1 280221Z 15025G31KT 29/18 A2965 RMK A01 T02890183  RH  053%=      5-min Rain = 0
KCO1 280222Z 15022G27KT 29/18 A2965 RMK A01 T02890184  RH  053%=      5-min Rain = 0
KCO1 280223Z 15021G26KT 29/18 A2965 RMK A01 T02890184  RH  053%=      5-min Rain = 0
KCO1 280224Z 15022KT 29/18 A2965 RMK A01 T02890184  RH  053%=      5-min Rain = 0
KCO1 280225Z 15024G29KT 29/18 A2965 RMK A01 T02880184  RH  053%=      5-min Rain = 0
KCO1 280226Z 14022KT 29/18 A2965 RMK A01 T02880184  RH  054%=      5-min Rain = 0
KCO1 280227Z 14019KT 29/19 A2965 RMK A01 T02880185  RH  054%=      5-min Rain = 0
KCO1 280228Z 15022G27KT 29/19 A2965 RMK A01 T02870185  RH  054%=      5-min Rain = 0
KCO1 280229Z 14019G24KT 29/19 A2965 RMK A01 T02870185  RH  054%=      5-min Rain = 0
KCO1 280230Z 14020KT 29/19 A2966 RMK A01 T02860185  RH  054%=      5-min Rain = 0
KCO1 280231Z 15021G26KT 29/18 A2965 RMK A01 T02860184  RH  054%=      5-min Rain = 0
KCO1 280232Z 14017KT 29/18 A2965 RMK A01 T02860184  RH  054%=      5-min Rain = 0
KCO1 280233Z 14019KT 29/18 A2965 RMK A01 T02850184  RH  054%=      5-min Rain = 0
KCO1 280234Z 15021G26KT 29/18 A2965 RMK A01 T02850184  RH  054%=      5-min Rain = 0
KCO1 280235Z 15020G27KT 29/18 A2965 RMK A01 T02850183  RH  054%=      5-min Rain = 0
KCO1 280236Z 15018G23KT 29/18 A2965 RMK A01 T02850183  RH  054%=      5-min Rain = 0
KCO1 280237Z 15020G25KT 29/18 A2965 RMK A01 T02850183  RH  054%=      5-min Rain = 0
KCO1 280238Z 14022KT 29/18 A2965 RMK A01 T02850183  RH  054%=      5-min Rain = 0
KCO1 280239Z 15018G24KT 29/18 A2965 RMK A01 T02850183  RH  054%=      5-min Rain = 0
KCO1 280240Z 15021G26KT 29/18 A2965 RMK A01 T02850183  RH  054%=      5-min Rain = 0
KCO1 280241Z 14017G24KT 28/18 A2965 RMK A01 T02840183  RH  054%=      5-min Rain = 0
KCO1 280242Z 15022G30KT 28/18 A2965 RMK A01 T02840183  RH  054%=      5-min Rain = 0
KCO1 280243Z 15018G24KT 28/18 A2966 RMK A01 T02840183  RH  054%=      5-min Rain = 0
KCO1 280244Z 15017KT 28/18 A2965 RMK A01 T02840183  RH  054%=      5-min Rain = 0
KCO1 280245Z 14016G22KT 28/18 A2965 RMK A01 T02830183  RH  054%=      5-min Rain = 0
KCO1 280246Z 15024KT 28/18 A2965 RMK A01 T02830183  RH  054%=      5-min Rain = 0
KCO1 280247Z 15024G29KT 28/18 A2965 RMK A01 T02830182  RH  054%=      5-min Rain = 0
KCO1 280248Z 15018G23KT 28/18 A2965 RMK A01 T02830182  RH  054%=      5-min Rain = 0
KCO1 280249Z 15023G28KT 28/18 A2965 RMK A01 T02830183  RH  054%=      5-min Rain = 0
KCO1 280250Z 14023KT 28/18 A2966 RMK A01 T02830183  RH  055%=      5-min Rain = 0
KCO1 280251Z 14021KT 28/18 A2965 RMK A01 T02830184  RH  055%=      5-min Rain = 0
KCO1 280252Z 15021KT 28/18 A2965 RMK A01 T02830184  RH  055%=      5-min Rain = 0
KCO1 280253Z 15018KT 28/18 A2966 RMK A01 T02820184  RH  055%=      5-min Rain = 0
KCO1 280254Z 15018G25KT 28/19 A2966 RMK A01 T02820185  RH  055%=      5-min Rain = 0
KCO1 280255Z 15019KT 28/19 A2966 RMK A01 T02810185  RH  056%=      5-min Rain = 0
KCO1 280256Z 14020KT 28/19 A2966 RMK A01 T02810185  RH  056%=      5-min Rain = 0
KCO1 280257Z 15019KT 28/19 A2966 RMK A01 T02810186  RH  056%=      5-min Rain = 0
KCO1 280258Z 15020G26KT 28/19 A2966 RMK A01 T02810186  RH  056%=      5-min Rain = 0
KCO1 280259Z 15020G25KT 28/19 A2966 RMK A01 T02810187  RH  057%=      5-min Rain = 0
KCO1 280300Z 15018KT 28/19 A2966 RMK A01 T02810187  RH  057%=      5-min Rain = 0
KCO1 280301Z 15021G28KT 28/19 A2966 RMK A01 T02800187  RH  057%=      5-min Rain = 0
KCO1 280302Z 17022G27KT 28/19 A2966 RMK A01 T02800188  RH  057%=      5-min Rain = 0
KCO1 280303Z 15019G25KT 28/19 A2966 RMK A01 T02800188  RH  057%=      5-min Rain = 0
KCO1 280304Z 15021KT 28/19 A2966 RMK A01 T02800189  RH  058%=      5-min Rain = 0
KCO1 280305Z 15023KT 28/19 A2966 RMK A01 T02800189  RH  058%=      5-min Rain = 0
KCO1 280306Z 15020G28KT 28/19 A2966 RMK A01 T02800190  RH  058%=      5-min Rain = 0
KCO1 280307Z 15018G28KT 28/19 A2966 RMK A01 T02800190  RH  058%=      5-min Rain = 0
KCO1 280308Z 15026G31KT 28/19 A2966 RMK A01 T02790191  RH  058%=      5-min Rain = 0
KCO1 280309Z 16025G32KT 28/19 A2966 RMK A01 T02790191  RH  059%=      5-min Rain = 0
KCO1 280310Z 14020G25KT 28/19 A2966 RMK A01 T02800192  RH  059%=      5-min Rain = 0
KCO1 280311Z 14016KT 28/19 A2966 RMK A01 T02800192  RH  059%=      5-min Rain = 0
KCO1 280312Z 15023G28KT 28/19 A2966 RMK A01 T02790192  RH  059%=      5-min Rain = 0
KCO1 280313Z 14020KT 28/19 A2966 RMK A01 T02790192  RH  059%=      5-min Rain = 0
KCO1 280314Z 15017G24KT 28/19 A2966 RMK A01 T02780192  RH  059%=      5-min Rain = 0
KCO1 280315Z 15019G28KT 28/19 A2966 RMK A01 T02780193  RH  060%=      5-min Rain = 0
KCO1 280316Z 14019G25KT 28/19 A2966 RMK A01 T02780193  RH  060%=      5-min Rain = 0
KCO1 280317Z 14018G24KT 28/19 A2966 RMK A01 T02780193  RH  060%=      5-min Rain = 0
KCO1 280318Z 14022G30KT 28/19 A2966 RMK A01 T02770193  RH  060%=      5-min Rain = 0
KCO1 280319Z 14021G32KT 28/19 A2966 RMK A01 T02770193  RH  060%=      5-min Rain = 0
KCO1 280320Z 15020KT 28/19 A2966 RMK A01 T02770193  RH  060%=      5-min Rain = 0
KCO1 280321Z 14018G24KT 28/19 A2966 RMK A01 T02770193  RH  060%=      5-min Rain = 0
KCO1 280322Z 15020G25KT 28/19 A2966 RMK A01 T02770193  RH  060%=      5-min Rain = 0
KCO1 280323Z 15023KT 28/19 A2965 RMK A01 T02770193  RH  060%=      5-min Rain = 0
KCO1 280324Z 14023G28KT 28/19 A2965 RMK A01 T02770192  RH  060%=      5-min Rain = 0
KCO1 280325Z 15022G28KT 28/19 A2965 RMK A01 T02770192  RH  060%=      5-min Rain = 0
KCO1 280326Z 15021KT 28/19 A2965 RMK A01 T02770192  RH  060%=      5-min Rain = 0
KCO1 280327Z 14020G26KT 28/19 A2965 RMK A01 T02770192  RH  060%=      5-min Rain = 0
KCO1 280328Z 15018KT 28/19 A2966 RMK A01 T02760192  RH  060%=      5-min Rain = 0
KCO1 280329Z 15022KT 28/19 A2966 RMK A01 T02760191  RH  060%=      5-min Rain = 0
KCO1 280330Z 15023G29KT 28/19 A2965 RMK A01 T02760191  RH  060%=      5-min Rain = 0
KCO1 280331Z 15024KT 28/19 A2965 RMK A01 T02760190  RH  060%=      5-min Rain = 0
KCO1 280332Z 15024G29KT 28/19 A2965 RMK A01 T02760190  RH  060%=      5-min Rain = 0
KCO1 280333Z 15022KT 28/19 A2965 RMK A01 T02760190  RH  059%=      5-min Rain = 0
KCO1 280334Z 15019G25KT 28/19 A2965 RMK A01 T02760190  RH  059%=      5-min Rain = 0
KCO1 280335Z 15020G27KT 28/19 A2965 RMK A01 T02760190  RH  059%=      5-min Rain = 0
KCO1 280336Z 14022G28KT 28/19 A2965 RMK A01 T02750190  RH  059%=      5-min Rain = 0
KCO1 280337Z 15023G28KT 28/19 A2965 RMK A01 T02750189  RH  059%=      5-min Rain = 0
KCO1 280338Z 15024G31KT 28/19 A2965 RMK A01 T02750188  RH  059%=      5-min Rain = 0
KCO1 280339Z 15023G29KT 28/19 A2965 RMK A01 T02750188  RH  059%=      5-min Rain = 0
KCO1 280340Z 15023G31KT 28/19 A2965 RMK A01 T02750188  RH  059%=      5-min Rain = 0
KCO1 280341Z 14023KT 28/19 A2965 RMK A01 T02750188  RH  059%=      5-min Rain = 0
KCO1 280342Z 15025KT 28/19 A2965 RMK A01 T02750187  RH  059%=      5-min Rain = 0
KCO1 280343Z 15024G29KT 28/19 A2965 RMK A01 T02750187  RH  059%=      5-min Rain = 0
KCO1 280344Z 15022KT 28/19 A2965 RMK A01 T02750187  RH  058%=      5-min Rain = 0
KCO1 280345Z 15020KT 28/19 A2966 RMK A01 T02750187  RH  058%=      5-min Rain = 0
KCO1 280346Z 15025G31KT 28/19 A2965 RMK A01 T02750186  RH  058%=      5-min Rain = 0
KCO1 280347Z 14023G32KT 27/19 A2965 RMK A01 T02740185  RH  058%=      5-min Rain = 0
KCO1 280348Z 15021G27KT 27/19 A2966 RMK A01 T02740185  RH  058%=      5-min Rain = 0
KCO1 280349Z 14022G27KT 27/19 A2965 RMK A01 T02740185  RH  058%=      5-min Rain = 0
KCO1 280350Z 15021G33KT 27/19 A2966 RMK A01 T02740185  RH  058%=      5-min Rain = 0
KCO1 280351Z 15025G32KT 27/18 A2966 RMK A01 T02740184  RH  058%=      5-min Rain = 0
KCO1 280352Z 16024G32KT 27/18 A2966 RMK A01 T02740183  RH  058%=      5-min Rain = 0
KCO1 280353Z 14021G29KT 27/18 A2966 RMK A01 T02740183  RH  057%=      5-min Rain = 0
KCO1 280354Z 14019G24KT 27/18 A2966 RMK A01 T02740182  RH  057%=      5-min Rain = 0
KCO1 280355Z 15018G23KT 27/18 A2966 RMK A01 T02730182  RH  058%=      5-min Rain = 0
KCO1 280356Z 15018G24KT 27/18 A2966 RMK A01 T02730183  RH  058%=      5-min Rain = 0
KCO1 280357Z 14017G23KT 27/18 A2966 RMK A01 T02720182  RH  058%=      5-min Rain = 0
KCO1 280358Z 15019G28KT 27/18 A2966 RMK A01 T02720182  RH  058%=      5-min Rain = 0
KCO1 280359Z 15023G29KT 27/18 A2966 RMK A01 T02720181  RH  058%=      5-min Rain = 0
KCO1 280400Z 15024KT 27/18 A2966 RMK A01 T02720181  RH  057%=      5-min Rain = 0
KCO1 280401Z 15021G26KT 27/18 A2965 RMK A01 T02730180  RH  057%=      5-min Rain = 0
KCO1 280402Z 15019G24KT 27/18 A2966 RMK A01 T02720180  RH  057%=      5-min Rain = 0
KCO1 280403Z 15023KT 27/18 A2965 RMK A01 T02730180  RH  057%=      5-min Rain = 0
KCO1 280404Z 15022G27KT 27/18 A2966 RMK A01 T02720180  RH  057%=      5-min Rain = 0
KCO1 280405Z 16025KT 27/18 A2965 RMK A01 T02730180  RH  057%=      5-min Rain = 0
KCO1 280406Z 15022G28KT 27/18 A2966 RMK A01 T02730179  RH  057%=      5-min Rain = 0
KCO1 280407Z 17022G28KT 27/18 A2965 RMK A01 T02730179  RH  057%=      5-min Rain = 0
KCO1 280408Z 17023G28KT 27/18 A2965 RMK A01 T02730179  RH  057%=      5-min Rain = 0
KCO1 280409Z 15022G29KT 27/18 A2966 RMK A01 T02730179  RH  056%=      5-min Rain = 0
KCO1 280410Z 15021G27KT 27/18 A2965 RMK A01 T02720178  RH  056%=      5-min Rain = 0
KCO1 280411Z 17024KT 27/18 A2965 RMK A01 T02720178  RH  056%=      5-min Rain = 0
KCO1 280412Z 17025G31KT 27/18 A2965 RMK A01 T02720178  RH  056%=      5-min Rain = 0
KCO1 280413Z 15021KT 27/18 A2965 RMK A01 T02720178  RH  056%=      5-min Rain = 0
KCO1 280414Z 15023G29KT 27/18 A2965 RMK A01 T02720177  RH  056%=      5-min Rain = 0
KCO1 280415Z 15021G27KT 27/18 A2965 RMK A01 T02720177  RH  056%=      5-min Rain = 0
KCO1 280416Z 15022G27KT 27/18 A2965 RMK A01 T02710176  RH  056%=      5-min Rain = 0
KCO1 280417Z 14019G24KT 27/18 A2965 RMK A01 T02710176  RH  056%=      5-min Rain = 0
KCO1 280418Z 15020G29KT 27/18 A2965 RMK A01 T02710176  RH  056%=      5-min Rain = 0
KCO1 280419Z 15024G29KT 27/18 A2965 RMK A01 T02710176  RH  056%=      5-min Rain = 0
KCO1 280420Z 15023KT 27/18 A2965 RMK A01 T02710176  RH  056%=      5-min Rain = 0
KCO1 280421Z 16025G30KT 27/18 A2965 RMK A01 T02710175  RH  056%=      5-min Rain = 0
KCO1 280422Z 16023G30KT 27/18 A2965 RMK A01 T02710175  RH  056%=      5-min Rain = 0
KCO1 280423Z 16025G31KT 27/18 A2965 RMK A01 T02710175  RH  056%=      5-min Rain = 0
KCO1 280424Z 16026G32KT 27/18 A2965 RMK A01 T02710175  RH  056%=      5-min Rain = 0
KCO1 280425Z 16023G31KT 27/18 A2965 RMK A01 T02710175  RH  056%=      5-min Rain = 0
KCO1 280426Z 19028KT 27/17 A2965 RMK A01 T02710174  RH  056%=      5-min Rain = 0
KCO1 280427Z 16026KT 27/17 A2965 RMK A01 T02710174  RH  055%=      5-min Rain = 0
KCO1 280428Z 15023KT 27/17 A2965 RMK A01 T02710174  RH  055%=      5-min Rain = 0
KCO1 280429Z 15020KT 27/17 A2965 RMK A01 T02710174  RH  055%=      5-min Rain = 0
KCO1 280430Z 15017G22KT 27/17 A2965 RMK A01 T02700174  RH  056%=      5-min Rain = 0
KCO1 280431Z 15018G26KT 27/17 A2965 RMK A01 T02690174  RH  056%=      5-min Rain = 0
KCO1 280432Z 17024G31KT 27/17 A2965 RMK A01 T02690174  RH  056%=      5-min Rain = 0
KCO1 280433Z 17025KT 27/17 A2965 RMK A01 T02690174  RH  056%=      5-min Rain = 0
KCO1 280434Z 17023KT 27/17 A2965 RMK A01 T02690173  RH  056%=      5-min Rain = 0
KCO1 280435Z 15024KT 27/17 A2965 RMK A01 T02690173  RH  056%=      5-min Rain = 0
KCO1 280436Z 14022G27KT 27/17 A2965 RMK A01 T02690173  RH  056%=      5-min Rain = 0
KCO1 280437Z 14023KT 27/17 A2965 RMK A01 T02690173  RH  056%=      5-min Rain = 0
KCO1 280438Z 15021G26KT 27/17 A2965 RMK A01 T02690174  RH  056%=      5-min Rain = 0
KCO1 280439Z 14021KT 27/17 A2965 RMK A01 T02680173  RH  056%=      5-min Rain = 0
KCO1 280440Z 14022G27KT 27/17 A2965 RMK A01 T02680174  RH  056%=      5-min Rain = 0
KCO1 280441Z 15022G29KT 27/17 A2965 RMK A01 T02680173  RH  056%=      5-min Rain = 0
KCO1 280442Z 15022G31KT 27/17 A2965 RMK A01 T02680173  RH  056%=      5-min Rain = 0
KCO1 280443Z 14023KT 27/17 A2965 RMK A01 T02680173  RH  056%=      5-min Rain = 0
KCO1 280444Z 14021KT 27/17 A2965 RMK A01 T02680174  RH  056%=      5-min Rain = 0
KCO1 280445Z 15026G32KT 27/17 A2965 RMK A01 T02680173  RH  056%=      5-min Rain = 0
KCO1 280446Z 14025KT 27/17 A2965 RMK A01 T02680173  RH  056%=      5-min Rain = 0
KCO1 280447Z 15023G28KT 27/17 A2965 RMK A01 T02680173  RH  056%=      5-min Rain = 0
KCO1 280448Z 15024KT 27/17 A2965 RMK A01 T02680173  RH  056%=      5-min Rain = 0
KCO1 280449Z 15021G26KT 27/17 A2965 RMK A01 T02670173  RH  056%=      5-min Rain = 0
KCO1 280450Z 14022G28KT 27/17 A2965 RMK A01 T02680173  RH  056%=      5-min Rain = 0
KCO1 280451Z 14022KT 27/17 A2965 RMK A01 T02670173  RH  056%=      5-min Rain = 0
KCO1 280452Z 15023G28KT 27/17 A2965 RMK A01 T02670173  RH  056%=      5-min Rain = 0
KCO1 280453Z 15019KT 27/17 A2965 RMK A01 T02660173  RH  056%=      5-min Rain = 0
KCO1 280454Z 15022G28KT 27/17 A2965 RMK A01 T02660173  RH  056%=      5-min Rain = 0
KCO1 280455Z 15018G25KT 27/17 A2965 RMK A01 T02660173  RH  056%=      5-min Rain = 0
KCO1 280456Z 15021G29KT 27/17 A2965 RMK A01 T02660173  RH  056%=      5-min Rain = 0
KCO1 280457Z 14022G27KT 27/17 A2965 RMK A01 T02660172  RH  057%=      5-min Rain = 0
KCO1 280458Z 15019G25KT 27/17 A2965 RMK A01 T02660173  RH  056%=      5-min Rain = 0
KCO1 280459Z 15018KT 27/17 A2965 RMK A01 T02650172  RH  057%=      5-min Rain = 0

Page generated in 0.1414 seconds.